Wetterdaten: Montag, 15.12.2014
Datum Zeit Temp. Aussen +5cm Feuchte Auss Luftdruck Regen Sonnenschein Regendauer Solar Windben
15.12.2014 00:00 -0,3 C -1,1 C 93 % 1014,7 hPa 0,0 l/m 0 min 0 min 0 W/m 12,6 km/h (3 Bft)
15.12.2014 00:02 -0,3 C -1,1 C 93 % 1014,7 hPa 0,0 l/m 0 min 0 min 0 W/m 20,9 km/h (4 Bft)
15.12.2014 00:05 -0,3 C -1,1 C 93 % 1014,6 hPa 0,0 l/m 0 min 0 min 0 W/m 14,6 km/h (3 Bft)
15.12.2014 00:06 -0,3 C -1,1 C 93 % 1014,6 hPa 0,0 l/m 0 min 0 min 0 W/m 10,5 km/h (2 Bft)
15.12.2014 00:08 -0,3 C -1,1 C 93 % 1014,6 hPa 0,0 l/m 0 min 0 min 0 W/m 14,6 km/h (3 Bft)
15.12.2014 00:10 -0,3 C -1,1 C 93 % 1014,6 hPa 0,0 l/m 0 min 0 min 0 W/m 14,6 km/h (3 Bft)
15.12.2014 00:12 -0,3 C -1,1 C 93 % 1014,5 hPa 0,0 l/m 0 min 0 min 0 W/m 18,8 km/h (3 Bft)
15.12.2014 00:14 -0,2 C -1,1 C 94 % 1014,5 hPa 0,0 l/m 0 min 0 min 0 W/m 14,6 km/h (3 Bft)
15.12.2014 00:16 -0,2 C -1,1 C 94 % 1014,5 hPa 0,0 l/m 0 min 0 min 0 W/m 18,8 km/h (3 Bft)
15.12.2014 00:18 -0,2 C -0,6 C 94 % 1014,5 hPa 0,0 l/m 0 min 0 min 0 W/m 18,8 km/h (3 Bft)
15.12.2014 00:20 -0,2 C -0,6 C 94 % 1014,5 hPa 0,0 l/m 0 min 0 min 0 W/m 18,8 km/h (3 Bft)
15.12.2014 00:22 -0,2 C -0,6 C 94 % 1014,5 hPa 0,0 l/m 0 min 0 min 0 W/m 18,8 km/h (3 Bft)
15.12.2014 00:24 -0,2 C -0,6 C 94 % 1014,5 hPa 0,0 l/m 0 min 0 min 0 W/m 12,6 km/h (3 Bft)
15.12.2014 00:26 -0,2 C -0,6 C 94 % 1014,5 hPa 0,0 l/m 0 min 0 min 0 W/m 16,7 km/h (3 Bft)
15.12.2014 00:28 -0,1 C -0,6 C 94 % 1014,5 hPa 0,0 l/m 0 min 0 min 0 W/m 14,6 km/h (3 Bft)
15.12.2014 00:30 -0,1 C -0,6 C 94 % 1014,5 hPa 0,0 l/m 0 min 0 min 0 W/m 12,6 km/h (3 Bft)
15.12.2014 00:32 -0,1 C -0,6 C 94 % 1014,5 hPa 0,0 l/m 0 min 0 min 0 W/m 10,5 km/h (2 Bft)
15.12.2014 00:34 -0,1 C -0,6 C 94 % 1014,5 hPa 0,0 l/m 0 min 0 min 0 W/m 12,6 km/h (3 Bft)
15.12.2014 00:36 -0,1 C -0,6 C 94 % 1014,6 hPa 0,0 l/m 0 min 0 min 0 W/m 10,5 km/h (2 Bft)
15.12.2014 00:38 -0,1 C -0,6 C 94 % 1014,5 hPa 0,0 l/m 0 min 0 min 0 W/m 12,6 km/h (3 Bft)
15.12.2014 00:40 -0,1 C -0,6 C 94 % 1014,4 hPa 0,0 l/m 0 min 0 min 0 W/m 12,6 km/h (3 Bft)
15.12.2014 00:42 -0,1 C -0,6 C 93 % 1014,4 hPa 0,0 l/m 0 min 0 min 0 W/m 14,6 km/h (3 Bft)
15.12.2014 00:44 -0,1 C -1,1 C 93 % 1014,4 hPa 0,0 l/m 0 min 0 min 0 W/m 14,6 km/h (3 Bft)
15.12.2014 00:46 -0,1 C -1,1 C 93 % 1014,4 hPa 0,0 l/m 0 min 0 min 0 W/m 14,6 km/h (3 Bft)
15.12.2014 00:48 -0,1 C -1,1 C 93 % 1014,3 hPa 0,0 l/m 0 min 0 min 0 W/m 12,6 km/h (3 Bft)
15.12.2014 00:50 -0,1 C -1,1 C 93 % 1014,4 hPa 0,0 l/m 0 min 0 min 0 W/m 14,6 km/h (3 Bft)
15.12.2014 00:52 -0,1 C -1,1 C 93 % 1014,4 hPa 0,0 l/m 0 min 0 min 0 W/m 14,6 km/h (3 Bft)
15.12.2014 00:54 -0,1 C -0,6 C 93 % 1014,3 hPa 0,0 l/m 0 min 0 min 0 W/m 10,5 km/h (2 Bft)
15.12.2014 00:56 0,0 C -0,6 C 93 % 1014,3 hPa 0,0 l/m 0 min 0 min 0 W/m 14,6 km/h (3 Bft)
15.12.2014 00:58 -0,1 C -0,6 C 93 % 1014,3 hPa 0,0 l/m 0 min 0 min 0 W/m 12,6 km/h (3 Bft)
15.12.2014 01:00 0,0 C -0,6 C 93 % 1014,3 hPa 0,0 l/m 0 min 0 min 0 W/m 10,5 km/h (2 Bft)
15.12.2014 01:02 0,0 C -0,6 C 93 % 1014,2 hPa 0,0 l/m 0 min 0 min 0 W/m 16,7 km/h (3 Bft)
15.12.2014 01:04 0,0 C -0,6 C 93 % 1014,2 hPa 0,0 l/m 0 min 0 min 0 W/m 14,6 km/h (3 Bft)
15.12.2014 01:06 0,0 C -0,6 C 93 % 1014,1 hPa 0,0 l/m 0 min 0 min 0 W/m 14,6 km/h (3 Bft)
15.12.2014 01:08 0,0 C -0,6 C 93 % 1014,0 hPa 0,0 l/m 0 min 0 min 0 W/m 14,6 km/h (3 Bft)
15.12.2014 01:10 0,0 C -0,6 C 93 % 1014,0 hPa 0,0 l/m 0 min 0 min 0 W/m 14,6 km/h (3 Bft)
15.12.2014 01:12 0,0 C -0,6 C 94 % 1014,0 hPa 0,0 l/m 0 min 0 min 0 W/m 10,5 km/h (2 Bft)
15.12.2014 01:14 0,1 C -0,6 C 93 % 1013,9 hPa 0,0 l/m 0 min 0 min 0 W/m 14,6 km/h (3 Bft)
15.12.2014 01:16 0,1 C -0,6 C 93 % 1013,9 hPa 0,0 l/m 0 min 0 min 0 W/m 14,6 km/h (3 Bft)
15.12.2014 01:18 0,1 C -0,6 C 93 % 1013,9 hPa 0,0 l/m 0 min 0 min 0 W/m 14,6 km/h (3 Bft)
15.12.2014 01:20 0,1 C -0,6 C 93 % 1013,9 hPa 0,0 l/m 0 min 0 min 0 W/m 16,7 km/h (3 Bft)
15.12.2014 01:22 0,1 C -0,6 C 93 % 1013,9 hPa 0,0 l/m 0 min 0 min 0 W/m 14,6 km/h (3 Bft)
15.12.2014 01:24 0,1 C -0,6 C 93 % 1013,9 hPa 0,0 l/m 0 min 0 min 0 W/m 14,6 km/h (3 Bft)
15.12.2014 01:26 0,1 C -0,6 C 93 % 1013,8 hPa 0,0 l/m 0 min 0 min 0 W/m 16,7 km/h (3 Bft)
15.12.2014 01:28 0,2 C -0,6 C 94 % 1013,7 hPa 0,0 l/m 0 min 0 min 0 W/m 14,6 km/h (3 Bft)
15.12.2014 01:30 0,2 C -0,6 C 94 % 1013,7 hPa 0,0 l/m 0 min 0 min 0 W/m 14,6 km/h (3 Bft)
15.12.2014 01:32 0,2 C -0,6 C 94 % 1013,7 hPa 0,0 l/m 0 min 0 min 0 W/m 18,8 km/h (3 Bft)
15.12.2014 01:34 0,2 C -0,6 C 94 % 1013,8 hPa 0,0 l/m 0 min 0 min 0 W/m 14,6 km/h (3 Bft)
15.12.2014 01:36 0,2 C -0,6 C 94 % 1013,8 hPa 0,0 l/m 0 min 0 min 0 W/m 8,4 km/h (2 Bft)
15.12.2014 01:38 0,2 C -0,6 C 94 % 1013,8 hPa 0,0 l/m 0 min 0 min 0 W/m 12,6 km/h (3 Bft)
15.12.2014 01:40 0,3 C -0,6 C 94 % 1013,8 hPa 0,0 l/m 0 min 0 min 0 W/m 12,6 km/h (3 Bft)
15.12.2014 01:42 0,3 C 0,0 C 94 % 1013,8 hPa 0,0 l/m 0 min 0 min 0 W/m 16,7 km/h (3 Bft)
15.12.2014 01:44 0,3 C 0,0 C 94 % 1013,7 hPa 0,0 l/m 0 min 0 min 0 W/m 14,6 km/h (3 Bft)
15.12.2014 01:46 0,3 C 0,0 C 94 % 1013,8 hPa 0,0 l/m 0 min 0 min 0 W/m 16,7 km/h (3 Bft)
15.12.2014 01:48 0,3 C 0,0 C 94 % 1013,6 hPa 0,0 l/m 0 min 0 min 0 W/m 16,7 km/h (3 Bft)
15.12.2014 01:50 0,3 C 0,0 C 94 % 1013,7 hPa 0,0 l/m 0 min 0 min 0 W/m 12,6 km/h (3 Bft)
15.12.2014 01:52 0,4 C 0,0 C 94 % 1013,6 hPa 0,0 l/m 0 min 0 min 0 W/m 14,6 km/h (3 Bft)
15.12.2014 01:54 0,4 C 0,0 C 94 % 1013,6 hPa 0,0 l/m 0 min 0 min 0 W/m 14,6 km/h (3 Bft)
15.12.2014 01:56 0,4 C 0,0 C 94 % 1013,6 hPa 0,0 l/m 0 min 0 min 0 W/m 16,7 km/h (3 Bft)
15.12.2014 01:58 0,4 C 0,0 C 94 % 1013,5 hPa 0,0 l/m 0 min 0 min 0 W/m 14,6 km/h (3 Bft)
15.12.2014 02:00 0,4 C 0,0 C 94 % 1013,5 hPa 0,0 l/m 0 min 0 min 0 W/m 16,7 km/h (3 Bft)
15.12.2014 02:02 0,5 C 0,0 C 94 % 1013,5 hPa 0,0 l/m 0 min 0 min 0 W/m 18,8 km/h (3 Bft)
15.12.2014 02:04 0,5 C 0,0 C 94 % 1013,4 hPa 0,0 l/m 0 min 0 min 0 W/m 18,8 km/h (3 Bft)
15.12.2014 02:06 0,5 C 0,0 C 94 % 1013,4 hPa 0,0 l/m 0 min 0 min 0 W/m 14,6 km/h (3 Bft)
15.12.2014 02:08 0,5 C 0,0 C 94 % 1013,4 hPa 0,0 l/m 0 min 0 min 0 W/m 20,9 km/h (4 Bft)
15.12.2014 02:10 0,5 C 0,0 C 94 % 1013,4 hPa 0,0 l/m 0 min 0 min 0 W/m 14,6 km/h (3 Bft)
15.12.2014 02:12 0,5 C 0,0 C 94 % 1013,4 hPa 0,0 l/m 0 min 0 min 0 W/m 14,6 km/h (3 Bft)
15.12.2014 02:14 0,5 C 0,0 C 94 % 1013,4 hPa 0,0 l/m 0 min 0 min 0 W/m 20,9 km/h (4 Bft)
15.12.2014 02:16 0,5 C 0,0 C 94 % 1013,4 hPa 0,0 l/m 0 min 0 min 0 W/m 18,8 km/h (3 Bft)
15.12.2014 02:18 0,5 C 0,0 C 94 % 1013,4 hPa 0,0 l/m 0 min 0 min 0 W/m 16,7 km/h (3 Bft)
15.12.2014 02:20 0,5 C 0,0 C 94 % 1013,3 hPa 0,0 l/m 0 min 0 min 0 W/m 16,7 km/h (3 Bft)
15.12.2014 02:22 0,6 C 0,0 C 94 % 1013,3 hPa 0,0 l/m 0 min 0 min 0 W/m 16,7 km/h (3 Bft)
15.12.2014 02:24 0,6 C 0,0 C 94 % 1013,3 hPa 0,0 l/m 0 min 0 min 0 W/m 14,6 km/h (3 Bft)
15.12.2014 02:26 0,6 C 0,0 C 94 % 1013,2 hPa 0,0 l/m 0 min 0 min 0 W/m 20,9 km/h (4 Bft)
15.12.2014 02:28 0,6 C 0,0 C 93 % 1013,2 hPa 0,0 l/m 0 min 0 min 0 W/m 18,8 km/h (3 Bft)
15.12.2014 02:30 0,6 C 0,0 C 93 % 1013,3 hPa 0,0 l/m 0 min 0 min 0 W/m 18,8 km/h (3 Bft)
15.12.2014 02:32 0,6 C 0,0 C 93 % 1013,2 hPa 0,0 l/m 0 min 0 min 0 W/m 16,7 km/h (3 Bft)
15.12.2014 02:34 0,7 C 0,0 C 93 % 1013,3 hPa 0,0 l/m 0 min 0 min 0 W/m 14,6 km/h (3 Bft)
15.12.2014 02:36 0,7 C 0,0 C 93 % 1013,3 hPa 0,0 l/m 0 min 0 min 0 W/m 16,7 km/h (3 Bft)
15.12.2014 02:38 0,7 C 0,0 C 93 % 1013,3 hPa 0,0 l/m 0 min 0 min 0 W/m 12,6 km/h (3 Bft)
15.12.2014 02:40 0,7 C 0,0 C 93 % 1013,3 hPa 0,0 l/m 0 min 0 min 0 W/m 20,9 km/h (4 Bft)
15.12.2014 02:42 0,7 C 0,0 C 93 % 1013,3 hPa 0,0 l/m 0 min 0 min 0 W/m 16,7 km/h (3 Bft)
15.12.2014 02:44 0,7 C 0,0 C 93 % 1013,3 hPa 0,0 l/m 0 min 0 min 0 W/m 18,8 km/h (3 Bft)
15.12.2014 02:46 0,7 C 0,0 C 93 % 1013,3 hPa 0,0 l/m 0 min 0 min 0 W/m 16,7 km/h (3 Bft)
15.12.2014 02:48 0,7 C 0,0 C 93 % 1013,3 hPa 0,0 l/m 0 min 0 min 0 W/m 12,6 km/h (3 Bft)
15.12.2014 02:50 0,8 C 0,0 C 93 % 1013,3 hPa 0,0 l/m 0 min 0 min 0 W/m 16,7 km/h (3 Bft)
15.12.2014 02:52 0,8 C 0,0 C 93 % 1013,3 hPa 0,0 l/m 0 min 0 min 0 W/m 12,6 km/h (3 Bft)
15.12.2014 02:54 0,8 C 0,0 C 93 % 1013,2 hPa 0,0 l/m 0 min 0 min 0 W/m 16,7 km/h (3 Bft)
15.12.2014 02:56 0,8 C 0,0 C 93 % 1013,2 hPa 0,0 l/m 0 min 0 min 0 W/m 14,6 km/h (3 Bft)
15.12.2014 02:58 0,8 C 0,0 C 93 % 1013,2 hPa 0,0 l/m 0 min 0 min 0 W/m 16,7 km/h (3 Bft)
15.12.2014 03:00 0,8 C 0,0 C 93 % 1013,1 hPa 0,0 l/m 0 min 0 min 0 W/m 12,6 km/h (3 Bft)
15.12.2014 03:02 0,8 C 0,0 C 93 % 1013,2 hPa 0,0 l/m 0 min 0 min 0 W/m 14,6 km/h (3 Bft)
15.12.2014 03:04 0,8 C 0,0 C 93 % 1013,2 hPa 0,0 l/m 0 min 0 min 0 W/m 12,6 km/h (3 Bft)
15.12.2014 03:06 0,8 C 0,0 C 93 % 1013,1 hPa 0,0 l/m 0 min 0 min 0 W/m 10,5 km/h (2 Bft)
15.12.2014 03:08 0,8 C 0,0 C 92 % 1013,1 hPa 0,0 l/m 0 min 0 min 0 W/m 10,5 km/h (2 Bft)
15.12.2014 03:10 0,8 C 0,0 C 92 % 1013,0 hPa 0,0 l/m 0 min 0 min 0 W/m 10,5 km/h (2 Bft)
15.12.2014 03:12 0,8 C 0,0 C 93 % 1013,0 hPa 0,0 l/m 0 min 0 min 0 W/m 10,5 km/h (2 Bft)
15.12.2014 03:14 0,8 C 0,0 C 93 % 1012,9 hPa 0,0 l/m 0 min 0 min 0 W/m 14,6 km/h (3 Bft)
15.12.2014 03:16 0,8 C 0,0 C 92 % 1012,9 hPa 0,0 l/m 0 min 0 min 0 W/m 16,7 km/h (3 Bft)
15.12.2014 03:18 0,8 C 0,0 C 92 % 1012,8 hPa 0,0 l/m 0 min 0 min 0 W/m 10,5 km/h (2 Bft)
15.12.2014 03:20 0,8 C 0,0 C 92 % 1012,8 hPa 0,0 l/m 0 min 0 min 0 W/m 10,5 km/h (2 Bft)
15.12.2014 03:22 0,8 C 0,0 C 92 % 1012,8 hPa 0,0 l/m 0 min 0 min 0 W/m 8,4 km/h (2 Bft)
15.12.2014 03:24 0,8 C 0,0 C 92 % 1012,7 hPa 0,0 l/m 0 min 0 min 0 W/m 10,5 km/h (2 Bft)
15.12.2014 03:26 0,8 C 0,0 C 92 % 1012,8 hPa 0,0 l/m 0 min 0 min 0 W/m 10,5 km/h (2 Bft)
15.12.2014 03:28 0,8 C 0,0 C 92 % 1012,8 hPa 0,0 l/m 0 min 0 min 0 W/m 10,5 km/h (2 Bft)
15.12.2014 03:30 0,8 C 0,0 C 92 % 1012,8 hPa 0,0 l/m 0 min 0 min 0 W/m 10,5 km/h (2 Bft)
15.12.2014 03:32 0,9 C 0,0 C 92 % 1012,8 hPa 0,0 l/m 0 min 0 min 0 W/m 12,6 km/h (3 Bft)
15.12.2014 03:34 0,9 C 0,0 C 92 % 1012,8 hPa 0,0 l/m 0 min 0 min 0 W/m 8,4 km/h (2 Bft)
15.12.2014 03:36 0,9 C 0,0 C 92 % 1012,7 hPa 0,0 l/m 0 min 0 min 0 W/m 6,3 km/h (2 Bft)
15.12.2014 03:38 0,9 C 0,0 C 92 % 1012,7 hPa 0,0 l/m 0 min 0 min 0 W/m 8,4 km/h (2 Bft)
15.12.2014 03:40 0,9 C 0,0 C 92 % 1012,8 hPa 0,0 l/m 0 min 0 min 0 W/m 8,4 km/h (2 Bft)
15.12.2014 03:42 0,9 C 0,0 C 92 % 1012,6 hPa 0,0 l/m 0 min 0 min 0 W/m 10,5 km/h (2 Bft)
15.12.2014 03:44 0,9 C 0,0 C 92 % 1012,5 hPa 0,0 l/m 0 min 0 min 0 W/m 10,5 km/h (2 Bft)
15.12.2014 03:46 0,9 C 0,0 C 92 % 1012,5 hPa 0,0 l/m 0 min 0 min 0 W/m 8,4 km/h (2 Bft)
15.12.2014 03:48 0,9 C 0,0 C 92 % 1012,4 hPa 0,0 l/m 0 min 0 min 0 W/m 10,5 km/h (2 Bft)
15.12.2014 03:50 0,9 C 0,0 C 92 % 1012,4 hPa 0,0 l/m 0 min 0 min 0 W/m 12,6 km/h (3 Bft)
15.12.2014 03:52 0,9 C 0,0 C 92 % 1012,4 hPa 0,0 l/m 0 min 0 min 0 W/m 8,4 km/h (2 Bft)
15.12.2014 03:54 0,9 C 0,0 C 92 % 1012,4 hPa 0,0 l/m 0 min 0 min 0 W/m 8,4 km/h (2 Bft)
15.12.2014 03:56 0,9 C 0,0 C 92 % 1012,3 hPa 0,0 l/m 0 min 0 min 0 W/m 12,6 km/h (3 Bft)
15.12.2014 03:58 0,9 C 0,6 C 92 % 1012,3 hPa 0,0 l/m 0 min 0 min 0 W/m 10,5 km/h (2 Bft)
15.12.2014 04:00 0,9 C 0,6 C 92 % 1012,3 hPa 0,0 l/m 0 min 0 min 0 W/m 10,5 km/h (2 Bft)
15.12.2014 04:02 0,9 C 0,6 C 92 % 1012,3 hPa 0,0 l/m 0 min 0 min 0 W/m 16,7 km/h (3 Bft)
15.12.2014 04:04 0,9 C 0,6 C 92 % 1012,2 hPa 0,0 l/m 0 min 0 min 0 W/m 12,6 km/h (3 Bft)
15.12.2014 04:06 1,0 C 0,6 C 92 % 1012,2 hPa 0,0 l/m 0 min 0 min 0 W/m 10,5 km/h (2 Bft)
15.12.2014 04:08 1,0 C 0,6 C 92 % 1012,2 hPa 0,0 l/m 0 min 0 min 0 W/m 10,5 km/h (2 Bft)
15.12.2014 04:10 1,0 C 0,6 C 92 % 1012,2 hPa 0,0 l/m 0 min 0 min 0 W/m 12,6 km/h (3 Bft)
15.12.2014 04:12 1,1 C 0,6 C 92 % 1012,1 hPa 0,0 l/m 0 min 0 min 0 W/m 14,6 km/h (3 Bft)
15.12.2014 04:14 1,1 C 0,6 C 92 % 1012,2 hPa 0,0 l/m 0 min 0 min 0 W/m 10,5 km/h (2 Bft)
15.12.2014 04:16 1,1 C 0,6 C 92 % 1012,2 hPa 0,0 l/m 0 min 0 min 0 W/m 10,5 km/h (2 Bft)
15.12.2014 04:18 1,1 C 0,6 C 92 % 1012,3 hPa 0,0 l/m 0 min 0 min 0 W/m 12,6 km/h (3 Bft)
15.12.2014 04:20 1,1 C 0,6 C 92 % 1012,1 hPa 0,0 l/m 0 min 0 min 0 W/m 10,5 km/h (2 Bft)
15.12.2014 04:22 1,1 C 0,6 C 91 % 1012,2 hPa 0,0 l/m 0 min 0 min 0 W/m 10,5 km/h (2 Bft)
15.12.2014 04:24 1,2 C 0,6 C 91 % 1012,1 hPa 0,0 l/m 0 min 0 min 0 W/m 8,4 km/h (2 Bft)
15.12.2014 04:26 1,2 C 0,6 C 91 % 1012,1 hPa 0,0 l/m 0 min 0 min 0 W/m 12,6 km/h (3 Bft)
15.12.2014 04:28 1,2 C 0,6 C 92 % 1012,0 hPa 0,0 l/m 0 min 0 min 0 W/m 10,5 km/h (2 Bft)
15.12.2014 04:30 1,2 C 0,6 C 91 % 1012,0 hPa 0,0 l/m 0 min 0 min 0 W/m 8,4 km/h (2 Bft)
15.12.2014 04:32 1,2 C 0,6 C 91 % 1011,9 hPa 0,0 l/m 0 min 0 min 0 W/m 16,7 km/h (3 Bft)
15.12.2014 04:34 1,2 C 0,6 C 91 % 1011,9 hPa 0,0 l/m 0 min 0 min 0 W/m 12,6 km/h (3 Bft)
15.12.2014 04:36 1,3 C 0,6 C 91 % 1011,8 hPa 0,0 l/m 0 min 0 min 0 W/m 10,5 km/h (2 Bft)
15.12.2014 04:38 1,3 C 0,6 C 91 % 1011,8 hPa 0,0 l/m 0 min 0 min 0 W/m 18,8 km/h (3 Bft)
15.12.2014 04:40 1,3 C 0,6 C 91 % 1011,8 hPa 0,0 l/m 0 min 0 min 0 W/m 16,7 km/h (3 Bft)
15.12.2014 04:42 1,3 C 1,1 C 91 % 1011,7 hPa 0,0 l/m 0 min 0 min 0 W/m 14,6 km/h (3 Bft)
15.12.2014 04:44 1,4 C 1,1 C 91 % 1011,6 hPa 0,0 l/m 0 min 0 min 0 W/m 25,1 km/h (4 Bft)
15.12.2014 04:46 1,4 C 1,1 C 91 % 1011,7 hPa 0,0 l/m 0 min 0 min 0 W/m 14,6 km/h (3 Bft)
15.12.2014 04:48 1,5 C 1,1 C 91 % 1011,6 hPa 0,0 l/m 0 min 0 min 0 W/m 23,0 km/h (4 Bft)
15.12.2014 04:50 1,6 C 1,1 C 91 % 1011,7 hPa 0,0 l/m 0 min 0 min 0 W/m 20,9 km/h (4 Bft)
15.12.2014 04:52 1,6 C 1,1 C 91 % 1011,6 hPa 0,0 l/m 0 min 0 min 0 W/m 14,6 km/h (3 Bft)
15.12.2014 04:54 1,6 C 1,1 C 91 % 1011,7 hPa 0,0 l/m 0 min 0 min 0 W/m 16,7 km/h (3 Bft)
15.12.2014 04:56 1,7 C 1,1 C 91 % 1011,7 hPa 0,0 l/m 0 min 0 min 0 W/m 12,6 km/h (3 Bft)
15.12.2014 04:58 1,8 C 1,7 C 91 % 1011,7 hPa 0,0 l/m 0 min 0 min 0 W/m 16,7 km/h (3 Bft)
15.12.2014 05:00 1,8 C 1,7 C 91 % 1011,7 hPa 0,0 l/m 0 min 0 min 0 W/m 20,9 km/h (4 Bft)
15.12.2014 05:02 1,9 C 1,7 C 91 % 1011,7 hPa 0,0 l/m 0 min 0 min 0 W/m 18,8 km/h (3 Bft)
15.12.2014 05:04 2,0 C 1,7 C 91 % 1011,7 hPa 0,0 l/m 0 min 0 min 0 W/m 18,8 km/h (3 Bft)
15.12.2014 05:06 2,1 C 1,7 C 91 % 1011,6 hPa 0,0 l/m 0 min 0 min 0 W/m 16,7 km/h (3 Bft)
15.12.2014 05:08 2,2 C 1,7 C 90 % 1011,6 hPa 0,0 l/m 0 min 0 min 0 W/m 25,1 km/h (4 Bft)
15.12.2014 05:10 2,2 C 1,7 C 90 % 1011,6 hPa 0,0 l/m 0 min 0 min 0 W/m 14,6 km/h (3 Bft)
15.12.2014 05:12 2,2 C 1,7 C 90 % 1011,5 hPa 0,0 l/m 0 min 0 min 0 W/m 16,7 km/h (3 Bft)
15.12.2014 05:14 2,3 C 1,7 C 90 % 1011,4 hPa 0,0 l/m 0 min 0 min 0 W/m 29,3 km/h (5 Bft)
15.12.2014 05:16 2,4 C 1,7 C 89 % 1011,4 hPa 0,0 l/m 0 min 0 min 0 W/m 14,6 km/h (3 Bft)
15.12.2014 05:18 2,4 C 1,7 C 89 % 1011,4 hPa 0,0 l/m 0 min 0 min 0 W/m 18,8 km/h (3 Bft)
15.12.2014 05:20 2,4 C 1,7 C 89 % 1011,3 hPa 0,0 l/m 0 min 0 min 0 W/m 23,0 km/h (4 Bft)
15.12.2014 05:22 2,5 C 1,7 C 89 % 1011,3 hPa 0,0 l/m 0 min 0 min 0 W/m 16,7 km/h (3 Bft)
15.12.2014 05:24 2,6 C 1,7 C 89 % 1011,4 hPa 0,0 l/m 0 min 0 min 0 W/m 23,0 km/h (4 Bft)
15.12.2014 05:26 2,6 C 1,7 C 88 % 1011,4 hPa 0,0 l/m 0 min 0 min 0 W/m 29,3 km/h (5 Bft)
15.12.2014 05:28 2,7 C 1,7 C 88 % 1011,4 hPa 0,0 l/m 0 min 0 min 0 W/m 18,8 km/h (3 Bft)
15.12.2014 05:30 2,7 C 1,7 C 88 % 1011,4 hPa 0,0 l/m 0 min 0 min 0 W/m 14,6 km/h (3 Bft)
15.12.2014 05:32 2,7 C 1,7 C 88 % 1011,3 hPa 0,0 l/m 0 min 0 min 0 W/m 18,8 km/h (3 Bft)
15.12.2014 05:34 2,8 C 1,7 C 87 % 1011,3 hPa 0,0 l/m 0 min 0 min 0 W/m 18,8 km/h (3 Bft)
15.12.2014 05:36 2,8 C 1,7 C 87 % 1011,4 hPa 0,0 l/m 0 min 0 min 0 W/m 14,6 km/h (3 Bft)
15.12.2014 05:38 2,8 C 1,7 C 87 % 1011,3 hPa 0,0 l/m 0 min 0 min 0 W/m 14,6 km/h (3 Bft)
15.12.2014 05:40 2,8 C 1,7 C 87 % 1011,3 hPa 0,0 l/m 0 min 0 min 0 W/m 18,8 km/h (3 Bft)
15.12.2014 05:42 2,8 C 1,7 C 87 % 1011,2 hPa 0,0 l/m 0 min 0 min 0 W/m 14,6 km/h (3 Bft)
15.12.2014 05:44 2,9 C 2,2 C 86 % 1011,2 hPa 0,0 l/m 0 min 0 min 0 W/m 23,0 km/h (4 Bft)
15.12.2014 05:46 2,9 C 2,2 C 86 % 1011,2 hPa 0,0 l/m 0 min 0 min 0 W/m 23,0 km/h (4 Bft)
15.12.2014 05:48 3,0 C 2,2 C 86 % 1011,1 hPa 0,0 l/m 0 min 0 min 0 W/m 20,9 km/h (4 Bft)
15.12.2014 05:50 3,1 C 2,2 C 86 % 1011,1 hPa 0,0 l/m 0 min 0 min 0 W/m 20,9 km/h (4 Bft)
15.12.2014 05:52 3,1 C 2,2 C 86 % 1011,1 hPa 0,0 l/m 0 min 0 min 0 W/m 14,6 km/h (3 Bft)
15.12.2014 05:54 3,2 C 2,2 C 85 % 1011,1 hPa 0,0 l/m 0 min 0 min 0 W/m 23,0 km/h (4 Bft)
15.12.2014 05:56 3,2 C 2,2 C 85 % 1011,1 hPa 0,0 l/m 0 min 0 min 0 W/m 29,3 km/h (5 Bft)
15.12.2014 05:58 3,2 C 2,2 C 85 % 1011,1 hPa 0,0 l/m 0 min 0 min 0 W/m 20,9 km/h (4 Bft)
15.12.2014 06:00 3,3 C 2,2 C 85 % 1011,0 hPa 0,0 l/m 0 min 0 min 0 W/m 16,7 km/h (3 Bft)
15.12.2014 06:02 3,3 C 2,2 C 85 % 1011,0 hPa 0,0 l/m 0 min 0 min 0 W/m 20,9 km/h (4 Bft)
15.12.2014 06:06 3,4 C 2,2 C 84 % 1011,1 hPa 0,0 l/m 0 min 0 min 0 W/m 16,7 km/h (3 Bft)
15.12.2014 06:08 3,5 C 2,2 C 84 % 1011,1 hPa 0,0 l/m 0 min 0 min 0 W/m 18,8 km/h (3 Bft)
15.12.2014 06:10 3,5 C 2,2 C 84 % 1011,1 hPa 0,0 l/m 0 min 0 min 0 W/m 20,9 km/h (4 Bft)
15.12.2014 06:12 3,6 C 2,2 C 84 % 1011,1 hPa 0,0 l/m 0 min 0 min 0 W/m 29,3 km/h (5 Bft)
15.12.2014 06:14 3,6 C 2,8 C 84 % 1011,1 hPa 0,2 l/m 0 min 0 min 0 W/m 27,2 km/h (4 Bft)
15.12.2014 06:16 3,6 C 2,2 C 83 % 1011,0 hPa 0,0 l/m 0 min 0 min 0 W/m 16,7 km/h (3 Bft)
15.12.2014 06:18 3,7 C 2,8 C 83 % 1011,0 hPa 0,0 l/m 0 min 0 min 0 W/m 20,9 km/h (4 Bft)
15.12.2014 06:20 3,7 C 2,8 C 83 % 1010,9 hPa 0,0 l/m 0 min 0 min 0 W/m 16,7 km/h (3 Bft)
15.12.2014 06:22 3,7 C 2,8 C 83 % 1010,9 hPa 0,0 l/m 0 min 0 min 0 W/m 20,9 km/h (4 Bft)
15.12.2014 06:24 3,8 C 2,8 C 83 % 1010,9 hPa 0,0 l/m 0 min 0 min 0 W/m 20,9 km/h (4 Bft)
15.12.2014 06:26 3,8 C 2,8 C 83 % 1010,9 hPa 0,0 l/m 0 min 0 min 0 W/m 23,0 km/h (4 Bft)
15.12.2014 06:28 3,8 C 2,8 C 82 % 1010,9 hPa 0,0 l/m 0 min 0 min 0 W/m 14,6 km/h (3 Bft)
15.12.2014 06:30 3,9 C 2,8 C 82 % 1010,8 hPa 0,0 l/m 0 min 0 min 0 W/m 27,2 km/h (4 Bft)
15.12.2014 06:32 3,9 C 2,8 C 82 % 1010,9 hPa 0,0 l/m 0 min 0 min 0 W/m 16,7 km/h (3 Bft)
15.12.2014 06:34 3,9 C 2,8 C 82 % 1010,9 hPa 0,0 l/m 0 min 0 min 0 W/m 29,3 km/h (5 Bft)
15.12.2014 06:36 3,9 C 2,8 C 82 % 1010,9 hPa 0,0 l/m 0 min 0 min 0 W/m 16,7 km/h (3 Bft)
15.12.2014 06:38 4,0 C 2,8 C 82 % 1010,9 hPa 0,0 l/m 0 min 0 min 0 W/m 12,6 km/h (3 Bft)
15.12.2014 06:40 4,0 C 2,8 C 82 % 1010,9 hPa 0,0 l/m 0 min 0 min 0 W/m 27,2 km/h (4 Bft)
15.12.2014 06:42 4,1 C 2,8 C 82 % 1010,9 hPa 0,0 l/m 0 min 0 min 0 W/m 20,9 km/h (4 Bft)
15.12.2014 06:44 4,1 C 2,8 C 82 % 1010,9 hPa 0,0 l/m 0 min 0 min 0 W/m 20,9 km/h (4 Bft)
15.12.2014 06:46 4,1 C 2,2 C 82 % 1010,9 hPa 0,0 l/m 0 min 0 min 0 W/m 14,6 km/h (3 Bft)
15.12.2014 06:48 4,1 C 2,2 C 82 % 1010,9 hPa 0,0 l/m 0 min 0 min 0 W/m 20,9 km/h (4 Bft)
15.12.2014 06:50 4,1 C 2,2 C 82 % 1010,9 hPa 0,0 l/m 0 min 0 min 0 W/m 20,9 km/h (4 Bft)
15.12.2014 06:52 4,1 C 2,2 C 82 % 1010,9 hPa 0,0 l/m 0 min 0 min 0 W/m 14,6 km/h (3 Bft)
15.12.2014 06:54 4,1 C 2,2 C 82 % 1010,8 hPa 0,0 l/m 0 min 0 min 0 W/m 18,8 km/h (3 Bft)
15.12.2014 06:56 4,1 C 2,2 C 82 % 1010,8 hPa 0,0 l/m 0 min 0 min 0 W/m 14,6 km/h (3 Bft)
15.12.2014 06:58 4,1 C 2,2 C 82 % 1010,8 hPa 0,0 l/m 0 min 0 min 0 W/m 20,9 km/h (4 Bft)
15.12.2014 07:00 4,1 C 2,8 C 82 % 1010,8 hPa 0,0 l/m 0 min 0 min 0 W/m 29,3 km/h (5 Bft)
15.12.2014 07:02 4,1 C 2,8 C 82 % 1010,7 hPa 0,0 l/m 0 min 0 min 0 W/m 25,1 km/h (4 Bft)
15.12.2014 07:04 4,1 C 2,8 C 82 % 1010,9 hPa 0,0 l/m 0 min 0 min 0 W/m 18,8 km/h (3 Bft)
15.12.2014 07:06 4,2 C 2,8 C 82 % 1010,9 hPa 0,0 l/m 0 min 0 min 0 W/m 20,9 km/h (4 Bft)
15.12.2014 07:08 4,2 C 2,8 C 82 % 1010,8 hPa 0,0 l/m 0 min 0 min 0 W/m 23,0 km/h (4 Bft)
15.12.2014 07:10 4,2 C 2,8 C 82 % 1010,8 hPa 0,0 l/m 0 min 0 min 0 W/m 14,6 km/h (3 Bft)
15.12.2014 07:12 4,2 C 2,8 C 82 % 1010,9 hPa 0,0 l/m 0 min 0 min 0 W/m 14,6 km/h (3 Bft)
15.12.2014 07:14 4,2 C 2,8 C 82 % 1010,9 hPa 0,0 l/m 0 min 0 min 0 W/m 18,8 km/h (3 Bft)
15.12.2014 07:16 4,2 C 2,8 C 82 % 1010,9 hPa 0,0 l/m 0 min 0 min 0 W/m 14,6 km/h (3 Bft)
15.12.2014 07:18 4,2 C 2,8 C 82 % 1010,9 hPa 0,0 l/m 0 min 0 min 0 W/m 14,6 km/h (3 Bft)
15.12.2014 07:20 4,3 C 2,8 C 82 % 1010,9 hPa 0,0 l/m 0 min 0 min 0 W/m 14,6 km/h (3 Bft)
15.12.2014 07:22 4,2 C 2,8 C 82 % 1010,8 hPa 0,0 l/m 0 min 0 min 0 W/m 25,1 km/h (4 Bft)
15.12.2014 07:24 4,3 C 2,8 C 82 % 1010,9 hPa 0,0 l/m 0 min 0 min 0 W/m 23,0 km/h (4 Bft)
15.12.2014 07:26 4,3 C 2,8 C 82 % 1010,8 hPa 0,0 l/m 0 min 0 min 0 W/m 18,8 km/h (3 Bft)
15.12.2014 07:28 4,3 C 2,8 C 82 % 1010,8 hPa 0,0 l/m 0 min 0 min 0 W/m 23,0 km/h (4 Bft)
15.12.2014 07:30 4,3 C 2,8 C 82 % 1010,8 hPa 0,0 l/m 0 min 0 min 0 W/m 14,6 km/h (3 Bft)
15.12.2014 07:32 4,3 C 2,8 C 82 % 1010,8 hPa 0,0 l/m 0 min 0 min 0 W/m 18,8 km/h (3 Bft)
15.12.2014 07:34 4,3 C 3,3 C 83 % 1010,8 hPa 0,0 l/m 0 min 0 min 0 W/m 16,7 km/h (3 Bft)
15.12.2014 07:36 4,4 C 3,3 C 83 % 1010,9 hPa 0,0 l/m 0 min 0 min 0 W/m 14,6 km/h (3 Bft)
15.12.2014 07:38 4,4 C 3,3 C 83 % 1010,9 hPa 0,0 l/m 0 min 0 min 0 W/m 10,5 km/h (2 Bft)
15.12.2014 07:40 4,4 C 3,3 C 83 % 1010,9 hPa 0,0 l/m 0 min 0 min 0 W/m 25,1 km/h (4 Bft)
15.12.2014 07:42 4,5 C 3,3 C 83 % 1010,9 hPa 0,0 l/m 0 min 0 min 0 W/m 25,1 km/h (4 Bft)
15.12.2014 07:44 4,5 C 3,3 C 83 % 1010,8 hPa 0,0 l/m 0 min 0 min 0 W/m 18,8 km/h (3 Bft)
15.12.2014 07:46 4,6 C 3,3 C 83 % 1010,9 hPa 0,0 l/m 0 min 0 min 0 W/m 18,8 km/h (3 Bft)
15.12.2014 07:48 4,6 C 3,3 C 83 % 1010,9 hPa 0,0 l/m 0 min 0 min 0 W/m 14,6 km/h (3 Bft)
15.12.2014 07:50 4,6 C 3,3 C 84 % 1010,8 hPa 0,0 l/m 0 min 0 min 0 W/m 16,7 km/h (3 Bft)
15.12.2014 07:52 4,6 C 3,3 C 84 % 1010,8 hPa 0,0 l/m 0 min 0 min 0 W/m 12,6 km/h (3 Bft)
15.12.2014 07:54 4,7 C 3,3 C 84 % 1010,9 hPa 0,0 l/m 0 min 0 min 0 W/m 18,8 km/h (3 Bft)
15.12.2014 07:56 4,7 C 3,3 C 84 % 1010,9 hPa 0,0 l/m 0 min 0 min 0 W/m 25,1 km/h (4 Bft)
15.12.2014 07:58 4,8 C 3,9 C 84 % 1011,0 hPa 0,0 l/m 0 min 0 min 0 W/m 14,6 km/h (3 Bft)
15.12.2014 08:00 4,8 C 3,9 C 85 % 1011,0 hPa 0,0 l/m 0 min 0 min 0 W/m 29,3 km/h (5 Bft)
15.12.2014 08:02 4,9 C 3,9 C 85 % 1011,0 hPa 0,0 l/m 0 min 0 min 0 W/m 29,3 km/h (5 Bft)
15.12.2014 08:04 5,0 C 3,9 C 85 % 1010,9 hPa 0,0 l/m 0 min 0 min 0 W/m 39,7 km/h (6 Bft)
15.12.2014 08:06 5,1 C 3,9 C 86 % 1011,0 hPa 0,0 l/m 0 min 0 min 0 W/m 29,3 km/h (5 Bft)
15.12.2014 08:08 5,1 C 3,9 C 86 % 1011,0 hPa 0,0 l/m 0 min 0 min 0 W/m 25,1 km/h (4 Bft)
15.12.2014 08:10 5,1 C 3,9 C 86 % 1011,0 hPa 0,0 l/m 0 min 0 min 0 W/m 52,3 km/h (7 Bft)
15.12.2014 08:12 5,2 C 3,9 C 86 % 1011,0 hPa 0,0 l/m 0 min 2 min 0 W/m 48,1 km/h (6 Bft)
15.12.2014 08:14 5,3 C 3,9 C 86 % 1011,0 hPa 0,0 l/m 0 min 2 min 0 W/m 27,2 km/h (4 Bft)
15.12.2014 08:16 5,3 C 3,3 C 86 % 1011,0 hPa 0,0 l/m 0 min 2 min 0 W/m 23,0 km/h (4 Bft)
15.12.2014 08:18 5,3 C 3,3 C 87 % 1011,0 hPa 0,0 l/m 0 min 2 min 0 W/m 29,3 km/h (5 Bft)
15.12.2014 08:20 5,3 C 3,3 C 87 % 1011,1 hPa 0,0 l/m 0 min 0 min 0 W/m 29,3 km/h (5 Bft)
15.12.2014 08:22 5,2 C 3,3 C 87 % 1011,0 hPa 0,0 l/m 0 min 0 min 0 W/m 33,5 km/h (5 Bft)
15.12.2014 08:24 5,2 C 3,3 C 87 % 1011,2 hPa 0,0 l/m 0 min 0 min 0 W/m 27,2 km/h (4 Bft)
15.12.2014 08:26 5,2 C 3,3 C 87 % 1011,2 hPa 0,0 l/m 0 min 0 min 0 W/m 25,1 km/h (4 Bft)
15.12.2014 08:28 5,2 C 3,3 C 87 % 1011,2 hPa 0,0 l/m 0 min 0 min 0 W/m 29,3 km/h (5 Bft)
15.12.2014 08:30 5,2 C 3,3 C 88 % 1011,2 hPa 0,0 l/m 0 min 0 min 1 W/m 37,7 km/h (5 Bft)
15.12.2014 08:32 5,2 C 3,3 C 88 % 1011,3 hPa 0,0 l/m 0 min 0 min 5 W/m 39,7 km/h (6 Bft)
15.12.2014 08:34 5,1 C 3,3 C 88 % 1011,2 hPa 0,0 l/m 0 min 0 min 5 W/m 31,4 km/h (5 Bft)
15.12.2014 08:36 5,1 C 3,3 C 88 % 1011,3 hPa 0,0 l/m 0 min 0 min 5 W/m 35,6 km/h (5 Bft)
15.12.2014 08:38 5,1 C 3,3 C 88 % 1011,2 hPa 0,0 l/m 0 min 0 min 5 W/m 43,9 km/h (6 Bft)
15.12.2014 08:40 5,1 C 3,3 C 88 % 1011,3 hPa 0,0 l/m 0 min 0 min 0 W/m 33,5 km/h (5 Bft)
15.12.2014 08:42 5,0 C 3,3 C 89 % 1011,2 hPa 0,0 l/m 0 min 2 min 0 W/m 41,8 km/h (6 Bft)
15.12.2014 08:44 5,0 C 3,3 C 89 % 1011,3 hPa 0,0 l/m 0 min 2 min 0 W/m 29,3 km/h (5 Bft)
15.12.2014 08:46 5,0 C 2,8 C 89 % 1011,4 hPa 0,0 l/m 0 min 2 min 0 W/m 29,3 km/h (5 Bft)
15.12.2014 08:48 4,9 C 2,8 C 89 % 1011,3 hPa 0,0 l/m 0 min 2 min 4 W/m 25,1 km/h (4 Bft)
15.12.2014 08:50 4,9 C 2,8 C 90 % 1011,4 hPa 0,0 l/m 0 min 2 min 3 W/m 31,4 km/h (5 Bft)
15.12.2014 08:52 4,8 C 2,8 C 90 % 1011,4 hPa 0,0 l/m 0 min 2 min 5 W/m 37,7 km/h (5 Bft)
15.12.2014 08:54 4,8 C 2,8 C 90 % 1011,4 hPa 0,0 l/m 0 min 2 min 5 W/m 29,3 km/h (5 Bft)
15.12.2014 08:56 4,8 C 2,8 C 90 % 1011,4 hPa 0,0 l/m 0 min 2 min 5 W/m 25,1 km/h (4 Bft)
15.12.2014 08:58 4,7 C 2,8 C 91 % 1011,4 hPa 0,0 l/m 0 min 0 min 5 W/m 35,6 km/h (5 Bft)
15.12.2014 09:00 4,7 C 2,8 C 91 % 1011,5 hPa 0,0 l/m 0 min 0 min 5 W/m 35,6 km/h (5 Bft)
15.12.2014 09:02 4,7 C 2,8 C 91 % 1011,4 hPa 0,0 l/m 0 min 0 min 5 W/m 35,6 km/h (5 Bft)
15.12.2014 09:04 4,7 C 2,8 C 91 % 1011,4 hPa 0,0 l/m 0 min 0 min 5 W/m 35,6 km/h (5 Bft)
15.12.2014 09:06 4,7 C 2,8 C 91 % 1011,4 hPa 0,0 l/m 0 min 0 min 7 W/m 25,1 km/h (4 Bft)
15.12.2014 09:08 4,6 C 2,8 C 91 % 1011,5 hPa 0,0 l/m 0 min 0 min 7 W/m 35,6 km/h (5 Bft)
15.12.2014 09:10 4,6 C 2,8 C 92 % 1011,5 hPa 0,0 l/m 0 min 0 min 5 W/m 31,4 km/h (5 Bft)
15.12.2014 09:12 4,6 C 2,8 C 92 % 1011,6 hPa 0,0 l/m 0 min 0 min 5 W/m 35,6 km/h (5 Bft)
15.12.2014 09:14 4,6 C 2,8 C 92 % 1011,6 hPa 0,0 l/m 0 min 0 min 6 W/m 33,5 km/h (5 Bft)
15.12.2014 09:16 4,6 C 2,8 C 92 % 1011,6 hPa 0,0 l/m 0 min 2 min 6 W/m 29,3 km/h (5 Bft)
15.12.2014 09:18 4,6 C 2,8 C 92 % 1011,6 hPa 0,0 l/m 0 min 2 min 7 W/m 29,3 km/h (5 Bft)
15.12.2014 09:20 4,6 C 2,8 C 92 % 1011,7 hPa 0,0 l/m 0 min 2 min 7 W/m 31,4 km/h (5 Bft)
15.12.2014 09:22 4,6 C 2,8 C 92 % 1011,7 hPa 0,0 l/m 0 min 2 min 8 W/m 35,6 km/h (5 Bft)
15.12.2014 09:24 4,6 C 2,8 C 92 % 1011,8 hPa 0,0 l/m 0 min 2 min 9 W/m 35,6 km/h (5 Bft)
15.12.2014 09:26 4,6 C 2,8 C 92 % 1011,8 hPa 0,2 l/m 0 min 2 min 9 W/m 29,3 km/h (5 Bft)
15.12.2014 09:28 4,6 C 2,8 C 92 % 1011,8 hPa 0,0 l/m 0 min 2 min 9 W/m 29,3 km/h (5 Bft)
15.12.2014 09:30 4,6 C 2,8 C 92 % 1011,9 hPa 0,0 l/m 0 min 2 min 9 W/m 35,6 km/h (5 Bft)
15.12.2014 09:32 4,6 C 2,8 C 92 % 1011,9 hPa 0,0 l/m 0 min 2 min 9 W/m 27,2 km/h (4 Bft)
15.12.2014 09:34 4,6 C 2,8 C 93 % 1011,8 hPa 0,0 l/m 0 min 2 min 9 W/m 27,2 km/h (4 Bft)
15.12.2014 09:36 4,6 C 2,8 C 93 % 1011,9 hPa 0,0 l/m 0 min 2 min 9 W/m 35,6 km/h (5 Bft)
15.12.2014 09:38 4,5 C 2,8 C 93 % 1011,9 hPa 0,0 l/m 0 min 2 min 9 W/m 33,5 km/h (5 Bft)
15.12.2014 09:40 4,5 C 2,8 C 93 % 1011,9 hPa 0,0 l/m 0 min 2 min 10 W/m 25,1 km/h (4 Bft)
15.12.2014 09:42 4,5 C 2,8 C 93 % 1012,0 hPa 0,0 l/m 0 min 2 min 11 W/m 33,5 km/h (5 Bft)
15.12.2014 09:44 4,5 C 2,8 C 93 % 1011,9 hPa 0,0 l/m 0 min 2 min 11 W/m 37,7 km/h (5 Bft)
15.12.2014 09:46 4,5 C 2,8 C 93 % 1012,0 hPa 0,0 l/m 0 min 2 min 9 W/m 33,5 km/h (5 Bft)
15.12.2014 09:48 4,5 C 2,8 C 93 % 1012,0 hPa 0,0 l/m 0 min 2 min 9 W/m 33,5 km/h (5 Bft)
15.12.2014 09:50 4,5 C 2,8 C 93 % 1012,1 hPa 0,0 l/m 0 min 2 min 11 W/m 37,7 km/h (5 Bft)
15.12.2014 09:52 4,5 C 2,8 C 93 % 1012,0 hPa 0,0 l/m 0 min 2 min 11 W/m 31,4 km/h (5 Bft)
15.12.2014 09:54 4,5 C 2,8 C 93 % 1012,1 hPa 0,0 l/m 0 min 2 min 13 W/m 33,5 km/h (5 Bft)
15.12.2014 09:56 4,5 C 2,8 C 93 % 1012,2 hPa 0,0 l/m 0 min 0 min 14 W/m 37,7 km/h (5 Bft)
15.12.2014 09:58 4,5 C 2,8 C 94 % 1012,1 hPa 0,0 l/m 0 min 0 min 14 W/m 27,2 km/h (4 Bft)
15.12.2014 10:00 4,5 C 2,8 C 94 % 1012,1 hPa 0,0 l/m 0 min 0 min 12 W/m 33,5 km/h (5 Bft)
15.12.2014 10:02 4,5 C 2,8 C 94 % 1012,3 hPa 0,0 l/m 0 min 0 min 11 W/m 23,0 km/h (4 Bft)
15.12.2014 10:04 4,4 C 2,8 C 94 % 1012,3 hPa 0,0 l/m 0 min 0 min 10 W/m 31,4 km/h (5 Bft)
15.12.2014 10:06 4,5 C 2,8 C 94 % 1012,3 hPa 0,0 l/m 0 min 0 min 9 W/m 37,7 km/h (5 Bft)
15.12.2014 10:08 4,4 C 2,8 C 94 % 1012,4 hPa 0,0 l/m 0 min 2 min 8 W/m 25,1 km/h (4 Bft)
15.12.2014 10:10 4,5 C 2,8 C 94 % 1012,4 hPa 0,0 l/m 0 min 2 min 7 W/m 23,0 km/h (4 Bft)
15.12.2014 10:12 4,4 C 2,8 C 94 % 1012,4 hPa 0,0 l/m 0 min 2 min 9 W/m 33,5 km/h (5 Bft)
15.12.2014 10:14 4,4 C 2,8 C 94 % 1012,4 hPa 0,0 l/m 0 min 2 min 10 W/m 33,5 km/h (5 Bft)
15.12.2014 10:16 4,4 C 2,8 C 94 % 1012,4 hPa 0,0 l/m 0 min 0 min 13 W/m 25,1 km/h (4 Bft)
15.12.2014 10:18 4,4 C 3,3 C 94 % 1012,4 hPa 0,0 l/m 0 min 0 min 13 W/m 29,3 km/h (5 Bft)
15.12.2014 10:20 4,4 C 3,3 C 94 % 1012,4 hPa 0,0 l/m 0 min 0 min 12 W/m 27,2 km/h (4 Bft)
15.12.2014 10:22 4,5 C 3,3 C 94 % 1012,5 hPa 0,0 l/m 0 min 0 min 12 W/m 23,0 km/h (4 Bft)
15.12.2014 10:24 4,5 C 3,3 C 94 % 1012,6 hPa 0,0 l/m 0 min 0 min 15 W/m 27,2 km/h (4 Bft)
15.12.2014 10:26 4,5 C 3,3 C 94 % 1012,6 hPa 0,0 l/m 0 min 0 min 14 W/m 23,0 km/h (4 Bft)
15.12.2014 10:28 4,5 C 3,3 C 94 % 1012,6 hPa 0,0 l/m 0 min 0 min 12 W/m 23,0 km/h (4 Bft)
15.12.2014 10:30 4,5 C 3,3 C 94 % 1012,7 hPa 0,0 l/m 0 min 0 min 17 W/m 43,9 km/h (6 Bft)
15.12.2014 10:32 4,5 C 3,3 C 94 % 1012,6 hPa 0,0 l/m 0 min 0 min 18 W/m 39,7 km/h (6 Bft)
15.12.2014 10:34 4,6 C 3,3 C 94 % 1012,7 hPa 0,0 l/m 0 min 0 min 18 W/m 29,3 km/h (5 Bft)
15.12.2014 10:36 4,6 C 3,3 C 94 % 1012,7 hPa 0,0 l/m 0 min 0 min 21 W/m 29,3 km/h (5 Bft)
15.12.2014 10:38 4,6 C 3,3 C 95 % 1012,8 hPa 0,0 l/m 0 min 0 min 21 W/m 23,0 km/h (4 Bft)
15.12.2014 10:40 4,6 C 3,3 C 95 % 1012,7 hPa 0,0 l/m 0 min 0 min 21 W/m 31,4 km/h (5 Bft)
15.12.2014 10:42 4,6 C 3,3 C 95 % 1012,8 hPa 0,0 l/m 0 min 0 min 19 W/m 29,3 km/h (5 Bft)
15.12.2014 10:44 4,6 C 3,3 C 95 % 1012,8 hPa 0,0 l/m 0 min 0 min 19 W/m 27,2 km/h (4 Bft)
15.12.2014 10:46 4,6 C 3,3 C 95 % 1012,8 hPa 0,0 l/m 0 min 0 min 19 W/m 31,4 km/h (5 Bft)
15.12.2014 10:48 4,6 C 3,3 C 95 % 1012,8 hPa 0,0 l/m 0 min 0 min 17 W/m 23,0 km/h (4 Bft)
15.12.2014 10:50 4,6 C 3,3 C 95 % 1012,9 hPa 0,0 l/m 0 min 0 min 16 W/m 31,4 km/h (5 Bft)
15.12.2014 10:52 4,7 C 3,3 C 95 % 1012,9 hPa 0,0 l/m 0 min 0 min 17 W/m 27,2 km/h (4 Bft)
15.12.2014 10:54 4,7 C 3,3 C 95 % 1012,9 hPa 0,0 l/m 0 min 0 min 18 W/m 29,3 km/h (5 Bft)
15.12.2014 10:56 4,7 C 3,3 C 95 % 1012,9 hPa 0,0 l/m 0 min 0 min 18 W/m 27,2 km/h (4 Bft)
15.12.2014 10:58 4,7 C 3,3 C 95 % 1012,9 hPa 0,0 l/m 0 min 0 min 16 W/m 33,5 km/h (5 Bft)
15.12.2014 11:00 4,7 C 3,3 C 95 % 1013,0 hPa 0,0 l/m 0 min 0 min 17 W/m 33,5 km/h (5 Bft)
15.12.2014 11:02 4,7 C 3,3 C 95 % 1013,1 hPa 0,0 l/m 0 min 0 min 19 W/m 27,2 km/h (4 Bft)
15.12.2014 11:04 4,7 C 3,3 C 95 % 1013,0 hPa 0,0 l/m 0 min 0 min 21 W/m 25,1 km/h (4 Bft)
15.12.2014 11:06 4,7 C 3,3 C 95 % 1013,0 hPa 0,0 l/m 0 min 0 min 25 W/m 27,2 km/h (4 Bft)
15.12.2014 11:08 4,7 C 3,3 C 95 % 1013,0 hPa 0,0 l/m 0 min 0 min 28 W/m 29,3 km/h (5 Bft)
15.12.2014 11:10 4,7 C 3,3 C 95 % 1013,0 hPa 0,0 l/m 0 min 0 min 29 W/m 31,4 km/h (5 Bft)
15.12.2014 11:12 4,7 C 3,3 C 95 % 1012,9 hPa 0,0 l/m 0 min 0 min 27 W/m 23,0 km/h (4 Bft)
15.12.2014 11:14 4,8 C 3,3 C 95 % 1013,0 hPa 0,0 l/m 0 min 0 min 30 W/m 27,2 km/h (4 Bft)
15.12.2014 11:16 4,8 C 3,3 C 95 % 1013,1 hPa 0,0 l/m 0 min 0 min 37 W/m 25,1 km/h (4 Bft)
15.12.2014 11:18 4,8 C 3,3 C 95 % 1013,1 hPa 0,0 l/m 0 min 0 min 37 W/m 31,4 km/h (5 Bft)
15.12.2014 11:20 4,8 C 3,3 C 95 % 1013,0 hPa 0,0 l/m 0 min 0 min 34 W/m 27,2 km/h (4 Bft)
15.12.2014 11:22 4,8 C 3,3 C 95 % 1013,0 hPa 0,0 l/m 0 min 0 min 33 W/m 27,2 km/h (4 Bft)
15.12.2014 11:24 4,8 C 3,3 C 95 % 1013,0 hPa 0,0 l/m 0 min 0 min 31 W/m 25,1 km/h (4 Bft)
15.12.2014 11:26 4,8 C 3,3 C 95 % 1012,9 hPa 0,0 l/m 0 min 0 min 27 W/m 20,9 km/h (4 Bft)
15.12.2014 11:28 4,8 C 3,3 C 95 % 1013,1 hPa 0,0 l/m 0 min 2 min 29 W/m 35,6 km/h (5 Bft)
15.12.2014 11:30 4,8 C 3,3 C 95 % 1013,0 hPa 0,0 l/m 0 min 2 min 36 W/m 29,3 km/h (5 Bft)
15.12.2014 11:32 4,8 C 3,3 C 95 % 1013,1 hPa 0,0 l/m 0 min 2 min 35 W/m 27,2 km/h (4 Bft)
15.12.2014 11:34 4,8 C 3,3 C 95 % 1013,0 hPa 0,0 l/m 0 min 2 min 35 W/m 16,7 km/h (3 Bft)
15.12.2014 11:36 4,9 C 3,3 C 95 % 1013,0 hPa 0,0 l/m 0 min 2 min 38 W/m 18,8 km/h (3 Bft)
15.12.2014 11:38 4,9 C 3,3 C 95 % 1013,0 hPa 0,0 l/m 0 min 2 min 37 W/m 18,8 km/h (3 Bft)
15.12.2014 11:40 4,9 C 3,3 C 95 % 1013,1 hPa 0,2 l/m 0 min 2 min 27 W/m 29,3 km/h (5 Bft)
15.12.2014 11:42 4,9 C 3,3 C 95 % 1013,1 hPa 0,0 l/m 0 min 2 min 27 W/m 20,9 km/h (4 Bft)
15.12.2014 11:44 4,9 C 3,3 C 95 % 1013,1 hPa 0,0 l/m 0 min 2 min 34 W/m 27,2 km/h (4 Bft)
15.12.2014 11:46 4,9 C 3,3 C 95 % 1013,1 hPa 0,0 l/m 0 min 2 min 41 W/m 23,0 km/h (4 Bft)
15.12.2014 11:48 4,9 C 3,3 C 95 % 1013,1 hPa 0,0 l/m 0 min 0 min 56 W/m 27,2 km/h (4 Bft)
15.12.2014 11:50 4,9 C 3,9 C 95 % 1013,0 hPa 0,0 l/m 0 min 0 min 60 W/m 20,9 km/h (4 Bft)
15.12.2014 11:52 4,9 C 3,9 C 95 % 1012,9 hPa 0,0 l/m 0 min 0 min 59 W/m 27,2 km/h (4 Bft)
15.12.2014 11:54 4,9 C 3,9 C 95 % 1013,1 hPa 0,0 l/m 0 min 0 min 63 W/m 29,3 km/h (5 Bft)
15.12.2014 11:56 4,9 C 3,9 C 95 % 1013,1 hPa 0,0 l/m 0 min 0 min 51 W/m 29,3 km/h (5 Bft)
15.12.2014 11:58 4,9 C 3,9 C 95 % 1013,0 hPa 0,0 l/m 0 min 0 min 43 W/m 33,5 km/h (5 Bft)
15.12.2014 12:00 4,9 C 3,9 C 95 % 1013,0 hPa 0,0 l/m 0 min 0 min 50 W/m 27,2 km/h (4 Bft)
15.12.2014 12:02 4,9 C 3,9 C 95 % 1013,1 hPa 0,0 l/m 0 min 0 min 70 W/m 27,2 km/h (4 Bft)
15.12.2014 12:06 4,9 C 3,9 C 95 % 1013,2 hPa 0,0 l/m 0 min 0 min 66 W/m 27,2 km/h (4 Bft)
15.12.2014 12:08 5,0 C 3,9 C 95 % 1013,2 hPa 0,0 l/m 0 min 0 min 51 W/m 29,3 km/h (5 Bft)
15.12.2014 12:10 5,0 C 3,9 C 95 % 1013,2 hPa 0,0 l/m 0 min 0 min 56 W/m 31,4 km/h (5 Bft)
15.12.2014 12:12 5,0 C 3,9 C 95 % 1013,2 hPa 0,0 l/m 0 min 0 min 71 W/m 25,1 km/h (4 Bft)
15.12.2014 12:14 5,0 C 3,9 C 95 % 1013,2 hPa 0,0 l/m 0 min 0 min 91 W/m 25,1 km/h (4 Bft)
15.12.2014 12:16 5,1 C 3,9 C 95 % 1013,2 hPa 0,0 l/m 0 min 0 min 77 W/m 37,7 km/h (5 Bft)
15.12.2014 12:18 5,1 C 3,9 C 95 % 1013,2 hPa 0,0 l/m 0 min 0 min 63 W/m 23,0 km/h (4 Bft)
15.12.2014 12:20 5,1 C 3,9 C 95 % 1013,2 hPa 0,0 l/m 0 min 0 min 73 W/m 27,2 km/h (4 Bft)
15.12.2014 12:22 5,1 C 3,9 C 95 % 1013,2 hPa 0,0 l/m 0 min 0 min 71 W/m 31,4 km/h (5 Bft)
15.12.2014 12:24 5,1 C 3,9 C 95 % 1013,3 hPa 0,0 l/m 0 min 0 min 60 W/m 29,3 km/h (5 Bft)
15.12.2014 12:26 5,1 C 3,9 C 95 % 1013,3 hPa 0,0 l/m 0 min 0 min 65 W/m 29,3 km/h (5 Bft)
15.12.2014 12:28 5,1 C 3,9 C 95 % 1013,3 hPa 0,0 l/m 0 min 0 min 77 W/m 33,5 km/h (5 Bft)
15.12.2014 12:30 5,2 C 3,9 C 95 % 1013,2 hPa 0,0 l/m 0 min 0 min 54 W/m 33,5 km/h (5 Bft)
15.12.2014 12:32 5,2 C 3,9 C 95 % 1013,2 hPa 0,0 l/m 0 min 0 min 47 W/m 31,4 km/h (5 Bft)
15.12.2014 12:34 5,2 C 3,9 C 95 % 1013,3 hPa 0,0 l/m 0 min 0 min 57 W/m 20,9 km/h (4 Bft)
15.12.2014 12:36 5,2 C 3,9 C 95 % 1013,3 hPa 0,0 l/m 0 min 0 min 47 W/m 25,1 km/h (4 Bft)
15.12.2014 12:38 5,2 C 3,9 C 95 % 1013,3 hPa 0,0 l/m 0 min 0 min 42 W/m 23,0 km/h (4 Bft)
15.12.2014 12:40 5,2 C 3,9 C 95 % 1013,3 hPa 0,0 l/m 0 min 0 min 42 W/m 25,1 km/h (4 Bft)
15.12.2014 12:42 5,2 C 3,9 C 95 % 1013,3 hPa 0,0 l/m 0 min 0 min 47 W/m 18,8 km/h (3 Bft)
15.12.2014 12:44 5,2 C 3,9 C 95 % 1013,3 hPa 0,0 l/m 0 min 0 min 46 W/m 27,2 km/h (4 Bft)
15.12.2014 12:46 5,2 C 3,9 C 95 % 1013,3 hPa 0,0 l/m 0 min 0 min 71 W/m 31,4 km/h (5 Bft)
15.12.2014 12:48 5,2 C 3,9 C 94 % 1013,2 hPa 0,0 l/m 0 min 0 min 109 W/m 27,2 km/h (4 Bft)
15.12.2014 12:50 5,3 C 3,9 C 94 % 1013,2 hPa 0,0 l/m 0 min 0 min 102 W/m 25,1 km/h (4 Bft)
15.12.2014 12:52 5,3 C 3,9 C 94 % 1013,3 hPa 0,0 l/m 0 min 0 min 66 W/m 29,3 km/h (5 Bft)
15.12.2014 12:54 5,3 C 4,4 C 94 % 1013,3 hPa 0,0 l/m 0 min 0 min 65 W/m 27,2 km/h (4 Bft)
15.12.2014 12:56 5,3 C 3,9 C 95 % 1013,4 hPa 0,0 l/m 0 min 0 min 43 W/m 31,4 km/h (5 Bft)
15.12.2014 12:58 5,3 C 3,9 C 95 % 1013,4 hPa 0,0 l/m 0 min 0 min 34 W/m 27,2 km/h (4 Bft)
15.12.2014 13:00 5,3 C 3,9 C 94 % 1013,3 hPa 0,0 l/m 0 min 0 min 30 W/m 16,7 km/h (3 Bft)
15.12.2014 13:02 5,3 C 3,9 C 94 % 1013,3 hPa 0,0 l/m 0 min 0 min 24 W/m 25,1 km/h (4 Bft)
15.12.2014 13:04 5,3 C 3,9 C 94 % 1013,4 hPa 0,0 l/m 0 min 0 min 19 W/m 29,3 km/h (5 Bft)
15.12.2014 13:06 5,3 C 3,9 C 94 % 1013,4 hPa 0,0 l/m 0 min 0 min 19 W/m 23,0 km/h (4 Bft)
15.12.2014 13:08 5,3 C 3,9 C 94 % 1013,4 hPa 0,0 l/m 0 min 0 min 27 W/m 27,2 km/h (4 Bft)
15.12.2014 13:10 5,3 C 3,9 C 94 % 1013,4 hPa 0,0 l/m 0 min 0 min 30 W/m 23,0 km/h (4 Bft)
15.12.2014 13:12 5,3 C 3,9 C 94 % 1013,4 hPa 0,0 l/m 0 min 0 min 26 W/m 23,0 km/h (4 Bft)
15.12.2014 13:14 5,3 C 3,9 C 94 % 1013,3 hPa 0,0 l/m 0 min 0 min 23 W/m 27,2 km/h (4 Bft)
15.12.2014 13:16 5,3 C 3,9 C 94 % 1013,3 hPa 0,0 l/m 0 min 0 min 20 W/m 20,9 km/h (4 Bft)
15.12.2014 13:18 5,3 C 3,9 C 94 % 1013,3 hPa 0,0 l/m 0 min 0 min 23 W/m 18,8 km/h (3 Bft)
15.12.2014 13:20 5,3 C 3,9 C 94 % 1013,2 hPa 0,0 l/m 0 min 0 min 25 W/m 18,8 km/h (3 Bft)
15.12.2014 13:22 5,3 C 3,9 C 94 % 1013,3 hPa 0,0 l/m 0 min 0 min 18 W/m 25,1 km/h (4 Bft)
15.12.2014 13:24 5,3 C 3,9 C 94 % 1013,3 hPa 0,0 l/m 0 min 0 min 14 W/m 18,8 km/h (3 Bft)
15.12.2014 13:26 5,3 C 3,9 C 94 % 1013,2 hPa 0,0 l/m 0 min 0 min 16 W/m 18,8 km/h (3 Bft)
15.12.2014 13:28 5,3 C 3,9 C 94 % 1013,3 hPa 0,0 l/m 0 min 0 min 17 W/m 23,0 km/h (4 Bft)
15.12.2014 13:30 5,3 C 3,9 C 94 % 1013,2 hPa 0,0 l/m 0 min 0 min 19 W/m 23,0 km/h (4 Bft)
15.12.2014 13:32 5,3 C 3,9 C 94 % 1013,3 hPa 0,0 l/m 0 min 2 min 24 W/m 16,7 km/h (3 Bft)
15.12.2014 13:34 5,3 C 3,9 C 94 % 1013,3 hPa 0,0 l/m 0 min 2 min 25 W/m 31,4 km/h (5 Bft)
15.12.2014 13:36 5,3 C 3,9 C 94 % 1013,3 hPa 0,0 l/m 0 min 0 min 18 W/m 23,0 km/h (4 Bft)
15.12.2014 13:38 5,3 C 3,9 C 94 % 1013,4 hPa 0,0 l/m 0 min 0 min 18 W/m 18,8 km/h (3 Bft)
15.12.2014 13:40 5,3 C 3,9 C 94 % 1013,4 hPa 0,0 l/m 0 min 0 min 22 W/m 27,2 km/h (4 Bft)
15.12.2014 13:42 5,3 C 3,9 C 94 % 1013,3 hPa 0,0 l/m 0 min 0 min 21 W/m 23,0 km/h (4 Bft)
15.12.2014 13:44 5,3 C 3,9 C 94 % 1013,3 hPa 0,0 l/m 0 min 0 min 19 W/m 18,8 km/h (3 Bft)
15.12.2014 13:46 5,3 C 3,9 C 94 % 1013,3 hPa 0,0 l/m 0 min 0 min 19 W/m 16,7 km/h (3 Bft)
15.12.2014 13:48 5,3 C 3,9 C 94 % 1013,3 hPa 0,0 l/m 0 min 0 min 22 W/m 25,1 km/h (4 Bft)
15.12.2014 13:50 5,2 C 3,9 C 94 % 1013,3 hPa 0,0 l/m 0 min 0 min 22 W/m 18,8 km/h (3 Bft)
15.12.2014 13:52 5,2 C 3,9 C 94 % 1013,3 hPa 0,0 l/m 0 min 0 min 20 W/m 25,1 km/h (4 Bft)
15.12.2014 13:54 5,2 C 3,9 C 94 % 1013,3 hPa 0,0 l/m 0 min 0 min 20 W/m 18,8 km/h (3 Bft)
15.12.2014 13:56 5,2 C 3,9 C 94 % 1013,3 hPa 0,0 l/m 0 min 0 min 19 W/m 20,9 km/h (4 Bft)
15.12.2014 13:58 5,2 C 3,9 C 94 % 1013,3 hPa 0,0 l/m 0 min 0 min 18 W/m 20,9 km/h (4 Bft)
15.12.2014 14:00 5,2 C 3,9 C 94 % 1013,3 hPa 0,0 l/m 0 min 0 min 18 W/m 14,6 km/h (3 Bft)
15.12.2014 14:02 5,2 C 3,9 C 94 % 1013,3 hPa 0,0 l/m 0 min 0 min 18 W/m 20,9 km/h (4 Bft)
15.12.2014 14:04 5,2 C 3,9 C 94 % 1013,3 hPa 0,0 l/m 0 min 0 min 19 W/m 16,7 km/h (3 Bft)
15.12.2014 14:06 5,1 C 3,9 C 94 % 1013,3 hPa 0,0 l/m 0 min 0 min 22 W/m 16,7 km/h (3 Bft)
15.12.2014 14:08 5,1 C 3,9 C 94 % 1013,3 hPa 0,0 l/m 0 min 0 min 28 W/m 16,7 km/h (3 Bft)
15.12.2014 14:10 5,1 C 3,9 C 94 % 1013,3 hPa 0,0 l/m 0 min 0 min 27 W/m 20,9 km/h (4 Bft)
15.12.2014 14:12 5,1 C 3,9 C 94 % 1013,3 hPa 0,0 l/m 0 min 0 min 22 W/m 20,9 km/h (4 Bft)
15.12.2014 14:14 5,1 C 3,9 C 94 % 1013,3 hPa 0,0 l/m 0 min 2 min 21 W/m 23,0 km/h (4 Bft)
15.12.2014 14:16 5,1 C 3,9 C 94 % 1013,4 hPa 0,0 l/m 0 min 2 min 19 W/m 18,8 km/h (3 Bft)
15.12.2014 14:18 5,1 C 3,9 C 94 % 1013,3 hPa 0,0 l/m 0 min 2 min 19 W/m 16,7 km/h (3 Bft)
15.12.2014 14:20 5,1 C 3,9 C 94 % 1013,4 hPa 0,0 l/m 0 min 2 min 23 W/m 14,6 km/h (3 Bft)
15.12.2014 14:22 5,1 C 3,9 C 94 % 1013,3 hPa 0,0 l/m 0 min 2 min 22 W/m 14,6 km/h (3 Bft)
15.12.2014 14:24 5,1 C 3,9 C 94 % 1013,3 hPa 0,0 l/m 0 min 0 min 22 W/m 16,7 km/h (3 Bft)
15.12.2014 14:26 5,1 C 3,9 C 94 % 1013,3 hPa 0,0 l/m 0 min 0 min 21 W/m 14,6 km/h (3 Bft)
15.12.2014 14:28 5,1 C 3,9 C 94 % 1013,3 hPa 0,0 l/m 0 min 0 min 28 W/m 25,1 km/h (4 Bft)
15.12.2014 14:30 5,1 C 3,9 C 95 % 1013,3 hPa 0,0 l/m 0 min 0 min 33 W/m 25,1 km/h (4 Bft)
15.12.2014 14:32 5,1 C 3,9 C 95 % 1013,3 hPa 0,0 l/m 0 min 0 min 35 W/m 12,6 km/h (3 Bft)
15.12.2014 14:34 5,1 C 3,9 C 95 % 1013,3 hPa 0,0 l/m 0 min 0 min 47 W/m 18,8 km/h (3 Bft)
15.12.2014 14:36 5,1 C 3,9 C 95 % 1013,3 hPa 0,0 l/m 0 min 0 min 42 W/m 25,1 km/h (4 Bft)
15.12.2014 14:38 5,1 C 3,9 C 95 % 1013,3 hPa 0,0 l/m 0 min 0 min 35 W/m 18,8 km/h (3 Bft)
15.12.2014 14:40 5,1 C 3,9 C 95 % 1013,3 hPa 0,0 l/m 0 min 0 min 32 W/m 16,7 km/h (3 Bft)
15.12.2014 14:42 5,1 C 3,9 C 95 % 1013,3 hPa 0,0 l/m 0 min 0 min 35 W/m 20,9 km/h (4 Bft)
15.12.2014 14:44 5,1 C 3,9 C 95 % 1013,3 hPa 0,0 l/m 0 min 0 min 41 W/m 23,0 km/h (4 Bft)
15.12.2014 14:46 5,1 C 3,9 C 95 % 1013,4 hPa 0,0 l/m 0 min 0 min 39 W/m 20,9 km/h (4 Bft)
15.12.2014 14:48 5,1 C 3,9 C 95 % 1013,4 hPa 0,0 l/m 0 min 0 min 37 W/m 29,3 km/h (5 Bft)
15.12.2014 14:50 5,1 C 3,9 C 95 % 1013,4 hPa 0,0 l/m 0 min 0 min 37 W/m 20,9 km/h (4 Bft)
15.12.2014 14:52 5,1 C 3,9 C 95 % 1013,4 hPa 0,0 l/m 0 min 0 min 41 W/m 18,8 km/h (3 Bft)
15.12.2014 14:54 5,1 C 3,9 C 95 % 1013,4 hPa 0,0 l/m 0 min 0 min 46 W/m 18,8 km/h (3 Bft)
15.12.2014 14:56 5,1 C 3,9 C 95 % 1013,4 hPa 0,0 l/m 0 min 0 min 44 W/m 18,8 km/h (3 Bft)
15.12.2014 14:58 5,1 C 3,9 C 95 % 1013,3 hPa 0,0 l/m 0 min 0 min 42 W/m 12,6 km/h (3 Bft)
15.12.2014 15:00 5,1 C 3,9 C 95 % 1013,4 hPa 0,0 l/m 0 min 0 min 48 W/m 14,6 km/h (3 Bft)
15.12.2014 15:02 5,1 C 3,9 C 95 % 1013,4 hPa 0,0 l/m 0 min 0 min 51 W/m 14,6 km/h (3 Bft)
15.12.2014 15:04 5,1 C 3,9 C 95 % 1013,5 hPa 0,0 l/m 0 min 0 min 42 W/m 14,6 km/h (3 Bft)
15.12.2014 15:06 5,1 C 3,9 C 95 % 1013,6 hPa 0,0 l/m 0 min 0 min 27 W/m 20,9 km/h (4 Bft)
15.12.2014 15:08 5,1 C 3,9 C 95 % 1013,6 hPa 0,0 l/m 0 min 2 min 26 W/m 16,7 km/h (3 Bft)
15.12.2014 15:10 5,1 C 3,9 C 95 % 1013,6 hPa 0,0 l/m 0 min 2 min 27 W/m 20,9 km/h (4 Bft)
15.12.2014 15:12 5,1 C 3,9 C 95 % 1013,7 hPa 0,0 l/m 0 min 2 min 19 W/m 18,8 km/h (3 Bft)
15.12.2014 15:14 5,1 C 3,9 C 95 % 1013,7 hPa 0,0 l/m 0 min 2 min 13 W/m 14,6 km/h (3 Bft)
15.12.2014 15:16 5,1 C 3,9 C 95 % 1013,7 hPa 0,0 l/m 0 min 2 min 16 W/m 16,7 km/h (3 Bft)
15.12.2014 15:18 5,1 C 3,9 C 95 % 1013,7 hPa 0,2 l/m 0 min 2 min 17 W/m 18,8 km/h (3 Bft)
15.12.2014 15:20 5,1 C 3,9 C 95 % 1013,7 hPa 0,0 l/m 0 min 2 min 20 W/m 12,6 km/h (3 Bft)
15.12.2014 15:22 5,1 C 3,9 C 95 % 1013,7 hPa 0,0 l/m 0 min 2 min 17 W/m 16,7 km/h (3 Bft)
15.12.2014 15:24 5,1 C 3,9 C 95 % 1013,7 hPa 0,0 l/m 0 min 2 min 12 W/m 16,7 km/h (3 Bft)
15.12.2014 15:26 5,1 C 3,9 C 95 % 1013,7 hPa 0,0 l/m 0 min 2 min 14 W/m 18,8 km/h (3 Bft)
15.12.2014 15:28 5,1 C 3,9 C 95 % 1013,7 hPa 0,0 l/m 0 min 2 min 15 W/m 14,6 km/h (3 Bft)
15.12.2014 15:30 5,1 C 3,9 C 95 % 1013,7 hPa 0,0 l/m 0 min 2 min 12 W/m 23,0 km/h (4 Bft)
15.12.2014 15:32 5,1 C 3,9 C 95 % 1013,7 hPa 0,0 l/m 0 min 2 min 15 W/m 20,9 km/h (4 Bft)
15.12.2014 15:34 5,1 C 3,3 C 95 % 1013,7 hPa 0,0 l/m 0 min 2 min 16 W/m 20,9 km/h (4 Bft)
15.12.2014 15:36 5,1 C 3,9 C 95 % 1013,8 hPa 0,0 l/m 0 min 2 min 14 W/m 16,7 km/h (3 Bft)
15.12.2014 15:38 5,1 C 3,9 C 95 % 1013,8 hPa 0,0 l/m 0 min 2 min 19 W/m 18,8 km/h (3 Bft)
15.12.2014 15:40 5,1 C 3,9 C 95 % 1013,8 hPa 0,0 l/m 0 min 0 min 19 W/m 12,6 km/h (3 Bft)
15.12.2014 15:42 5,1 C 3,3 C 95 % 1013,8 hPa 0,0 l/m 0 min 2 min 17 W/m 10,5 km/h (2 Bft)
15.12.2014 15:44 5,1 C 3,3 C 95 % 1013,9 hPa 0,0 l/m 0 min 0 min 14 W/m 10,5 km/h (2 Bft)
15.12.2014 15:46 5,1 C 3,3 C 95 % 1013,9 hPa 0,0 l/m 0 min 0 min 12 W/m 14,6 km/h (3 Bft)
15.12.2014 15:48 5,0 C 3,3 C 95 % 1013,9 hPa 0,0 l/m 0 min 0 min 11 W/m 14,6 km/h (3 Bft)
15.12.2014 15:50 5,0 C 3,3 C 95 % 1013,9 hPa 0,0 l/m 0 min 0 min 11 W/m 16,7 km/h (3 Bft)
15.12.2014 15:52 5,0 C 3,3 C 95 % 1013,9 hPa 0,0 l/m 0 min 0 min 15 W/m 16,7 km/h (3 Bft)
15.12.2014 15:54 5,0 C 3,3 C 95 % 1013,9 hPa 0,0 l/m 0 min 0 min 17 W/m 18,8 km/h (3 Bft)
15.12.2014 15:56 5,0 C 3,3 C 95 % 1013,9 hPa 0,0 l/m 0 min 0 min 15 W/m 16,7 km/h (3 Bft)
15.12.2014 15:58 5,0 C 3,3 C 95 % 1013,9 hPa 0,0 l/m 0 min 0 min 11 W/m 14,6 km/h (3 Bft)
15.12.2014 16:00 4,9 C 3,3 C 95 % 1013,9 hPa 0,0 l/m 0 min 0 min 11 W/m 18,8 km/h (3 Bft)
15.12.2014 16:02 5,0 C 3,3 C 95 % 1014,0 hPa 0,0 l/m 0 min 2 min 10 W/m 25,1 km/h (4 Bft)
15.12.2014 16:04 4,9 C 3,3 C 95 % 1014,0 hPa 0,0 l/m 0 min 2 min 9 W/m 16,7 km/h (3 Bft)
15.12.2014 16:06 4,9 C 3,3 C 95 % 1013,9 hPa 0,0 l/m 0 min 2 min 7 W/m 14,6 km/h (3 Bft)
15.12.2014 16:08 4,9 C 3,3 C 95 % 1014,0 hPa 0,0 l/m 0 min 0 min 6 W/m 14,6 km/h (3 Bft)
15.12.2014 16:10 4,9 C 3,3 C 95 % 1014,1 hPa 0,0 l/m 0 min 0 min 5 W/m 12,6 km/h (3 Bft)
15.12.2014 16:12 4,9 C 3,3 C 95 % 1014,0 hPa 0,0 l/m 0 min 0 min 0 W/m 14,6 km/h (3 Bft)
15.12.2014 16:14 4,9 C 3,3 C 95 % 1014,0 hPa 0,0 l/m 0 min 0 min 0 W/m 14,6 km/h (3 Bft)
15.12.2014 16:16 4,9 C 3,3 C 95 % 1014,0 hPa 0,0 l/m 0 min 0 min 0 W/m 16,7 km/h (3 Bft)
15.12.2014 16:18 4,9 C 3,3 C 95 % 1014,0 hPa 0,0 l/m 0 min 0 min 2 W/m 12,6 km/h (3 Bft)
15.12.2014 16:20 4,9 C 3,3 C 95 % 1013,9 hPa 0,0 l/m 0 min 0 min 0 W/m 12,6 km/h (3 Bft)
15.12.2014 16:22 4,9 C 3,3 C 95 % 1014,0 hPa 0,0 l/m 0 min 0 min 0 W/m 16,7 km/h (3 Bft)
15.12.2014 16:24 4,9 C 3,3 C 95 % 1013,9 hPa 0,0 l/m 0 min 0 min 0 W/m 10,5 km/h (2 Bft)
15.12.2014 16:26 4,9 C 3,3 C 95 % 1014,0 hPa 0,0 l/m 0 min 0 min 0 W/m 18,8 km/h (3 Bft)
15.12.2014 16:28 4,9 C 3,3 C 95 % 1014,0 hPa 0,0 l/m 0 min 0 min 0 W/m 12,6 km/h (3 Bft)
15.12.2014 16:30 4,9 C 3,3 C 95 % 1014,0 hPa 0,0 l/m 0 min 0 min 0 W/m 16,7 km/h (3 Bft)
15.12.2014 16:32 4,9 C 3,3 C 95 % 1013,9 hPa 0,0 l/m 0 min 2 min 0 W/m 12,6 km/h (3 Bft)
15.12.2014 16:34 4,9 C 3,3 C 95 % 1013,9 hPa 0,0 l/m 0 min 0 min 0 W/m 14,6 km/h (3 Bft)
15.12.2014 16:36 4,9 C 3,3 C 95 % 1014,0 hPa 0,0 l/m 0 min 0 min 0 W/m 14,6 km/h (3 Bft)
15.12.2014 16:38 4,9 C 3,3 C 95 % 1014,0 hPa 0,0 l/m 0 min 0 min 0 W/m 12,6 km/h (3 Bft)
15.12.2014 16:40 4,9 C 3,3 C 95 % 1013,9 hPa 0,0 l/m 0 min 0 min 0 W/m 14,6 km/h (3 Bft)
15.12.2014 16:42 4,9 C 3,3 C 95 % 1013,9 hPa 0,0 l/m 0 min 0 min 0 W/m 12,6 km/h (3 Bft)
15.12.2014 16:44 4,9 C 3,3 C 95 % 1013,9 hPa 0,0 l/m 0 min 0 min 0 W/m 10,5 km/h (2 Bft)
15.12.2014 16:46 4,9 C 3,3 C 95 % 1013,9 hPa 0,0 l/m 0 min 0 min 0 W/m 10,5 km/h (2 Bft)
15.12.2014 16:48 4,8 C 3,3 C 95 % 1014,0 hPa 0,0 l/m 0 min 0 min 0 W/m 10,5 km/h (2 Bft)
15.12.2014 16:50 4,8 C 3,3 C 95 % 1014,0 hPa 0,0 l/m 0 min 0 min 0 W/m 10,5 km/h (2 Bft)
15.12.2014 16:52 4,8 C 3,3 C 95 % 1014,0 hPa 0,0 l/m 0 min 0 min 0 W/m 10,5 km/h (2 Bft)
15.12.2014 16:54 4,8 C 3,3 C 95 % 1013,9 hPa 0,0 l/m 0 min 0 min 0 W/m 10,5 km/h (2 Bft)
15.12.2014 16:56 4,8 C 3,3 C 95 % 1013,9 hPa 0,0 l/m 0 min 0 min 0 W/m 12,6 km/h (3 Bft)
15.12.2014 16:58 4,8 C 3,3 C 95 % 1013,9 hPa 0,0 l/m 0 min 0 min 0 W/m 14,6 km/h (3 Bft)
15.12.2014 17:00 4,8 C 3,3 C 95 % 1013,9 hPa 0,0 l/m 0 min 0 min 0 W/m 16,7 km/h (3 Bft)
15.12.2014 17:02 4,8 C 3,3 C 95 % 1014,0 hPa 0,0 l/m 0 min 2 min 0 W/m 16,7 km/h (3 Bft)
15.12.2014 17:04 4,8 C 3,3 C 95 % 1014,0 hPa 0,0 l/m 0 min 0 min 0 W/m 10,5 km/h (2 Bft)
15.12.2014 17:06 4,8 C 3,3 C 95 % 1014,0 hPa 0,0 l/m 0 min 0 min 0 W/m 14,6 km/h (3 Bft)
15.12.2014 17:08 4,8 C 3,3 C 95 % 1014,0 hPa 0,0 l/m 0 min 0 min 0 W/m 14,6 km/h (3 Bft)
15.12.2014 17:10 4,8 C 3,3 C 95 % 1013,9 hPa 0,0 l/m 0 min 0 min 0 W/m 12,6 km/h (3 Bft)
15.12.2014 17:12 4,8 C 3,3 C 95 % 1013,9 hPa 0,0 l/m 0 min 0 min 0 W/m 18,8 km/h (3 Bft)
15.12.2014 17:14 4,8 C 3,3 C 95 % 1013,9 hPa 0,0 l/m 0 min 0 min 0 W/m 14,6 km/h (3 Bft)
15.12.2014 17:16 4,8 C 3,3 C 95 % 1013,9 hPa 0,0 l/m 0 min 0 min 0 W/m 14,6 km/h (3 Bft)
15.12.2014 17:18 4,8 C 3,3 C 95 % 1013,9 hPa 0,0 l/m 0 min 0 min 0 W/m 16,7 km/h (3 Bft)
15.12.2014 17:20 4,8 C 3,3 C 95 % 1014,0 hPa 0,0 l/m 0 min 0 min 0 W/m 18,8 km/h (3 Bft)
15.12.2014 17:22 4,8 C 3,3 C 95 % 1013,9 hPa 0,0 l/m 0 min 0 min 0 W/m 12,6 km/h (3 Bft)
15.12.2014 17:24 4,8 C 3,3 C 95 % 1013,9 hPa 0,0 l/m 0 min 0 min 0 W/m 16,7 km/h (3 Bft)
15.12.2014 17:26 4,8 C 3,3 C 95 % 1013,9 hPa 0,0 l/m 0 min 0 min 0 W/m 20,9 km/h (4 Bft)
15.12.2014 17:28 4,8 C 3,3 C 95 % 1013,9 hPa 0,0 l/m 0 min 0 min 0 W/m 12,6 km/h (3 Bft)
15.12.2014 17:30 4,7 C 3,3 C 95 % 1013,9 hPa 0,0 l/m 0 min 0 min 0 W/m 18,8 km/h (3 Bft)
15.12.2014 17:32 4,7 C 3,3 C 95 % 1013,9 hPa 0,0 l/m 0 min 0 min 0 W/m 16,7 km/h (3 Bft)
15.12.2014 17:34 4,7 C 3,3 C 95 % 1013,8 hPa 0,0 l/m 0 min 0 min 0 W/m 18,8 km/h (3 Bft)
15.12.2014 17:36 4,7 C 3,3 C 95 % 1013,9 hPa 0,0 l/m 0 min 0 min 0 W/m 14,6 km/h (3 Bft)
15.12.2014 17:38 4,7 C 3,3 C 95 % 1013,9 hPa 0,0 l/m 0 min 0 min 0 W/m 16,7 km/h (3 Bft)
15.12.2014 17:40 4,7 C 3,3 C 95 % 1013,9 hPa 0,0 l/m 0 min 0 min 0 W/m 14,6 km/h (3 Bft)
15.12.2014 17:42 4,7 C 3,3 C 95 % 1013,9 hPa 0,0 l/m 0 min 0 min 0 W/m 20,9 km/h (4 Bft)
15.12.2014 17:44 4,7 C 3,3 C 95 % 1013,8 hPa 0,0 l/m 0 min 0 min 0 W/m 18,8 km/h (3 Bft)
15.12.2014 17:46 4,7 C 3,3 C 95 % 1013,9 hPa 0,0 l/m 0 min 0 min 0 W/m 18,8 km/h (3 Bft)
15.12.2014 17:48 4,7 C 3,3 C 95 % 1013,9 hPa 0,0 l/m 0 min 0 min 0 W/m 18,8 km/h (3 Bft)
15.12.2014 17:50 4,7 C 3,3 C 95 % 1013,9 hPa 0,0 l/m 0 min 0 min 0 W/m 20,9 km/h (4 Bft)
15.12.2014 17:52 4,7 C 3,3 C 95 % 1013,9 hPa 0,0 l/m 0 min 0 min 0 W/m 27,2 km/h (4 Bft)
15.12.2014 17:54 4,7 C 3,3 C 95 % 1013,9 hPa 0,0 l/m 0 min 0 min 0 W/m 23,0 km/h (4 Bft)
15.12.2014 17:56 4,7 C 3,3 C 95 % 1013,9 hPa 0,0 l/m 0 min 0 min 0 W/m 14,6 km/h (3 Bft)
15.12.2014 17:58 4,7 C 3,3 C 95 % 1013,9 hPa 0,0 l/m 0 min 0 min 0 W/m 23,0 km/h (4 Bft)
15.12.2014 18:00 4,7 C 3,3 C 95 % 1013,9 hPa 0,0 l/m 0 min 0 min 0 W/m 16,7 km/h (3 Bft)
15.12.2014 18:02 4,7 C 3,3 C 95 % 1013,9 hPa 0,0 l/m 0 min 0 min 0 W/m 20,9 km/h (4 Bft)
15.12.2014 18:06 4,7 C 3,3 C 95 % 1013,9 hPa 0,0 l/m 0 min 0 min 0 W/m 23,0 km/h (4 Bft)
15.12.2014 18:08 4,7 C 3,3 C 95 % 1013,9 hPa 0,0 l/m 0 min 0 min 0 W/m 18,8 km/h (3 Bft)
15.12.2014 18:10 4,7 C 3,3 C 95 % 1013,9 hPa 0,0 l/m 0 min 0 min 0 W/m 23,0 km/h (4 Bft)
15.12.2014 18:12 4,7 C 2,8 C 95 % 1013,9 hPa 0,0 l/m 0 min 0 min 0 W/m 14,6 km/h (3 Bft)
15.12.2014 18:14 4,7 C 2,8 C 95 % 1013,9 hPa 0,0 l/m 0 min 0 min 0 W/m 14,6 km/h (3 Bft)
15.12.2014 18:16 4,7 C 2,8 C 95 % 1014,0 hPa 0,0 l/m 0 min 0 min 0 W/m 23,0 km/h (4 Bft)
15.12.2014 18:18 4,6 C 2,8 C 95 % 1014,1 hPa 0,0 l/m 0 min 0 min 0 W/m 16,7 km/h (3 Bft)
15.12.2014 18:20 4,6 C 2,8 C 95 % 1014,1 hPa 0,0 l/m 0 min 0 min 0 W/m 12,6 km/h (3 Bft)
15.12.2014 18:22 4,6 C 2,8 C 95 % 1014,0 hPa 0,0 l/m 0 min 0 min 0 W/m 14,6 km/h (3 Bft)
15.12.2014 18:24 4,6 C 2,8 C 95 % 1014,0 hPa 0,0 l/m 0 min 0 min 0 W/m 14,6 km/h (3 Bft)
15.12.2014 18:26 4,6 C 2,8 C 95 % 1014,1 hPa 0,0 l/m 0 min 0 min 0 W/m 12,6 km/h (3 Bft)
15.12.2014 18:28 4,6 C 2,8 C 95 % 1014,2 hPa 0,0 l/m 0 min 0 min 0 W/m 14,6 km/h (3 Bft)
15.12.2014 18:30 4,6 C 2,8 C 95 % 1014,3 hPa 0,0 l/m 0 min 0 min 0 W/m 14,6 km/h (3 Bft)
15.12.2014 18:32 4,6 C 2,8 C 95 % 1014,2 hPa 0,0 l/m 0 min 0 min 0 W/m 10,5 km/h (2 Bft)
15.12.2014 18:34 4,6 C 2,8 C 95 % 1014,3 hPa 0,0 l/m 0 min 0 min 0 W/m 12,6 km/h (3 Bft)
15.12.2014 18:36 4,5 C 2,8 C 95 % 1014,2 hPa 0,0 l/m 0 min 0 min 0 W/m 14,6 km/h (3 Bft)
15.12.2014 18:38 4,5 C 2,8 C 95 % 1014,1 hPa 0,0 l/m 0 min 0 min 0 W/m 12,6 km/h (3 Bft)
15.12.2014 18:40 4,5 C 2,8 C 95 % 1014,0 hPa 0,0 l/m 0 min 0 min 0 W/m 8,4 km/h (2 Bft)
15.12.2014 18:42 4,5 C 2,8 C 95 % 1014,1 hPa 0,0 l/m 0 min 0 min 0 W/m 12,6 km/h (3 Bft)
15.12.2014 18:44 4,5 C 2,8 C 95 % 1014,1 hPa 0,0 l/m 0 min 0 min 0 W/m 12,6 km/h (3 Bft)
15.12.2014 18:46 4,4 C 2,8 C 95 % 1014,2 hPa 0,0 l/m 0 min 0 min 0 W/m 14,6 km/h (3 Bft)
15.12.2014 18:48 4,4 C 2,8 C 95 % 1014,1 hPa 0,0 l/m 0 min 0 min 0 W/m 10,5 km/h (2 Bft)
15.12.2014 18:50 4,4 C 2,8 C 95 % 1014,1 hPa 0,0 l/m 0 min 0 min 0 W/m 12,6 km/h (3 Bft)
15.12.2014 18:52 4,4 C 2,8 C 95 % 1014,2 hPa 0,0 l/m 0 min 0 min 0 W/m 10,5 km/h (2 Bft)
15.12.2014 18:54 4,4 C 2,8 C 95 % 1014,2 hPa 0,0 l/m 0 min 0 min 0 W/m 12,6 km/h (3 Bft)
15.12.2014 18:56 4,4 C 2,8 C 94 % 1014,2 hPa 0,0 l/m 0 min 0 min 0 W/m 10,5 km/h (2 Bft)
15.12.2014 18:58 4,4 C 2,2 C 94 % 1014,3 hPa 0,0 l/m 0 min 0 min 0 W/m 10,5 km/h (2 Bft)
15.12.2014 19:00 4,3 C 2,2 C 94 % 1014,3 hPa 0,0 l/m 0 min 0 min 0 W/m 12,6 km/h (3 Bft)
15.12.2014 19:02 4,3 C 2,2 C 95 % 1014,2 hPa 0,0 l/m 0 min 0 min 0 W/m 10,5 km/h (2 Bft)
15.12.2014 19:04 4,3 C 2,2 C 95 % 1014,1 hPa 0,0 l/m 0 min 0 min 0 W/m 8,4 km/h (2 Bft)
15.12.2014 19:06 4,3 C 2,2 C 95 % 1014,1 hPa 0,0 l/m 0 min 0 min 0 W/m 6,3 km/h (2 Bft)
15.12.2014 19:08 4,3 C 2,2 C 95 % 1014,2 hPa 0,0 l/m 0 min 0 min 0 W/m 12,6 km/h (3 Bft)
15.12.2014 19:10 4,2 C 2,2 C 95 % 1014,1 hPa 0,0 l/m 0 min 0 min 0 W/m 10,5 km/h (2 Bft)
15.12.2014 19:12 4,2 C 2,2 C 95 % 1014,1 hPa 0,0 l/m 0 min 0 min 0 W/m 10,5 km/h (2 Bft)
15.12.2014 19:14 4,2 C 2,2 C 95 % 1014,1 hPa 0,0 l/m 0 min 0 min 0 W/m 10,5 km/h (2 Bft)
15.12.2014 19:16 4,2 C 2,2 C 95 % 1014,0 hPa 0,0 l/m 0 min 0 min 0 W/m 8,4 km/h (2 Bft)
15.12.2014 19:18 4,2 C 2,2 C 95 % 1014,0 hPa 0,0 l/m 0 min 0 min 0 W/m 14,6 km/h (3 Bft)
15.12.2014 19:20 4,2 C 2,2 C 94 % 1014,0 hPa 0,0 l/m 0 min 0 min 0 W/m 16,7 km/h (3 Bft)
15.12.2014 19:22 4,1 C 2,2 C 94 % 1014,0 hPa 0,0 l/m 0 min 0 min 0 W/m 12,6 km/h (3 Bft)
15.12.2014 19:24 4,1 C 2,2 C 94 % 1014,0 hPa 0,0 l/m 0 min 0 min 0 W/m 10,5 km/h (2 Bft)
15.12.2014 19:26 4,1 C 2,2 C 94 % 1014,0 hPa 0,0 l/m 0 min 0 min 0 W/m 12,6 km/h (3 Bft)
15.12.2014 19:28 4,1 C 2,2 C 94 % 1014,0 hPa 0,0 l/m 0 min 0 min 0 W/m 6,3 km/h (2 Bft)
15.12.2014 19:30 4,1 C 2,2 C 94 % 1014,0 hPa 0,0 l/m 0 min 0 min 0 W/m 8,4 km/h (2 Bft)
15.12.2014 19:32 4,1 C 2,2 C 94 % 1014,0 hPa 0,0 l/m 0 min 0 min 0 W/m 12,6 km/h (3 Bft)
15.12.2014 19:34 4,1 C 2,2 C 94 % 1014,0 hPa 0,0 l/m 0 min 0 min 0 W/m 12,6 km/h (3 Bft)
15.12.2014 19:36 4,1 C 2,8 C 94 % 1014,1 hPa 0,0 l/m 0 min 0 min 0 W/m 10,5 km/h (2 Bft)
15.12.2014 19:38 4,1 C 2,8 C 94 % 1014,1 hPa 0,0 l/m 0 min 0 min 0 W/m 10,5 km/h (2 Bft)
15.12.2014 19:40 4,1 C 2,8 C 94 % 1014,0 hPa 0,0 l/m 0 min 0 min 0 W/m 8,4 km/h (2 Bft)
15.12.2014 19:42 4,1 C 2,2 C 94 % 1014,0 hPa 0,0 l/m 0 min 0 min 0 W/m 6,3 km/h (2 Bft)
15.12.2014 19:44 4,0 C 2,2 C 94 % 1014,0 hPa 0,0 l/m 0 min 0 min 0 W/m 10,5 km/h (2 Bft)
15.12.2014 19:46 4,1 C 2,2 C 94 % 1014,1 hPa 0,0 l/m 0 min 0 min 0 W/m 10,5 km/h (2 Bft)
15.12.2014 19:48 4,0 C 2,2 C 95 % 1014,2 hPa 0,0 l/m 0 min 0 min 0 W/m 10,5 km/h (2 Bft)
15.12.2014 19:50 4,0 C 2,2 C 95 % 1014,1 hPa 0,0 l/m 0 min 0 min 0 W/m 12,6 km/h (3 Bft)
15.12.2014 19:52 4,0 C 2,2 C 95 % 1014,1 hPa 0,0 l/m 0 min 0 min 0 W/m 12,6 km/h (3 Bft)
15.12.2014 19:54 4,0 C 2,2 C 95 % 1014,2 hPa 0,0 l/m 0 min 0 min 0 W/m 10,5 km/h (2 Bft)
15.12.2014 19:56 4,0 C 2,2 C 95 % 1014,0 hPa 0,0 l/m 0 min 0 min 0 W/m 14,6 km/h (3 Bft)
15.12.2014 19:58 4,0 C 2,2 C 95 % 1014,1 hPa 0,0 l/m 0 min 0 min 0 W/m 12,6 km/h (3 Bft)
15.12.2014 20:00 3,9 C 2,2 C 95 % 1014,1 hPa 0,0 l/m 0 min 0 min 0 W/m 10,5 km/h (2 Bft)
15.12.2014 20:02 3,9 C 2,2 C 95 % 1014,0 hPa 0,0 l/m 0 min 0 min 0 W/m 8,4 km/h (2 Bft)
15.12.2014 20:04 3,9 C 2,2 C 95 % 1014,0 hPa 0,0 l/m 0 min 0 min 0 W/m 14,6 km/h (3 Bft)
15.12.2014 20:06 3,9 C 2,2 C 95 % 1014,0 hPa 0,0 l/m 0 min 0 min 0 W/m 6,3 km/h (2 Bft)
15.12.2014 20:08 3,9 C 2,2 C 95 % 1014,0 hPa 0,0 l/m 0 min 0 min 0 W/m 12,6 km/h (3 Bft)
15.12.2014 20:10 3,9 C 2,2 C 95 % 1014,0 hPa 0,0 l/m 0 min 0 min 0 W/m 8,4 km/h (2 Bft)
15.12.2014 20:12 3,9 C 2,2 C 94 % 1014,1 hPa 0,0 l/m 0 min 0 min 0 W/m 10,5 km/h (2 Bft)
15.12.2014 20:14 3,9 C 2,2 C 94 % 1014,1 hPa 0,0 l/m 0 min 0 min 0 W/m 8,4 km/h (2 Bft)
15.12.2014 20:16 3,8 C 2,2 C 95 % 1014,1 hPa 0,0 l/m 0 min 0 min 0 W/m 6,3 km/h (2 Bft)
15.12.2014 20:18 3,8 C 2,2 C 95 % 1014,2 hPa 0,0 l/m 0 min 0 min 0 W/m 6,3 km/h (2 Bft)
15.12.2014 20:20 3,8 C 2,2 C 95 % 1014,2 hPa 0,0 l/m 0 min 0 min 0 W/m 10,5 km/h (2 Bft)
15.12.2014 20:22 3,8 C 2,2 C 95 % 1014,1 hPa 0,0 l/m 0 min 0 min 0 W/m 10,5 km/h (2 Bft)
15.12.2014 20:24 3,8 C 2,2 C 95 % 1014,2 hPa 0,0 l/m 0 min 0 min 0 W/m 14,6 km/h (3 Bft)
15.12.2014 20:26 3,8 C 2,2 C 95 % 1014,1 hPa 0,0 l/m 0 min 0 min 0 W/m 8,4 km/h (2 Bft)
15.12.2014 20:28 3,8 C 2,8 C 95 % 1014,2 hPa 0,0 l/m 0 min 0 min 0 W/m 10,5 km/h (2 Bft)
15.12.2014 20:30 3,8 C 2,8 C 95 % 1014,2 hPa 0,0 l/m 0 min 0 min 0 W/m 16,7 km/h (3 Bft)
15.12.2014 20:32 3,8 C 2,8 C 95 % 1014,1 hPa 0,0 l/m 0 min 0 min 0 W/m 12,6 km/h (3 Bft)
15.12.2014 20:34 3,8 C 2,8 C 95 % 1014,1 hPa 0,0 l/m 0 min 0 min 0 W/m 12,6 km/h (3 Bft)
15.12.2014 20:36 3,9 C 2,8 C 95 % 1014,1 hPa 0,0 l/m 0 min 0 min 0 W/m 10,5 km/h (2 Bft)
15.12.2014 20:38 3,9 C 2,8 C 95 % 1014,0 hPa 0,0 l/m 0 min 0 min 0 W/m 14,6 km/h (3 Bft)
15.12.2014 20:40 3,9 C 2,8 C 95 % 1014,0 hPa 0,0 l/m 0 min 0 min 0 W/m 10,5 km/h (2 Bft)
15.12.2014 20:42 3,9 C 2,8 C 95 % 1014,0 hPa 0,0 l/m 0 min 0 min 0 W/m 12,6 km/h (3 Bft)
15.12.2014 20:44 3,9 C 2,8 C 95 % 1014,0 hPa 0,0 l/m 0 min 0 min 0 W/m 10,5 km/h (2 Bft)
15.12.2014 20:46 3,9 C 2,8 C 95 % 1014,0 hPa 0,0 l/m 0 min 0 min 0 W/m 14,6 km/h (3 Bft)
15.12.2014 20:48 3,9 C 2,8 C 95 % 1014,0 hPa 0,0 l/m 0 min 0 min 0 W/m 16,7 km/h (3 Bft)
15.12.2014 20:50 3,9 C 2,8 C 95 % 1014,0 hPa 0,0 l/m 0 min 0 min 0 W/m 12,6 km/h (3 Bft)
15.12.2014 20:52 3,9 C 2,8 C 95 % 1014,0 hPa 0,0 l/m 0 min 0 min 0 W/m 12,6 km/h (3 Bft)
15.12.2014 20:54 3,9 C 2,8 C 95 % 1014,1 hPa 0,0 l/m 0 min 0 min 0 W/m 6,3 km/h (2 Bft)
15.12.2014 20:56 3,9 C 2,8 C 95 % 1014,0 hPa 0,0 l/m 0 min 0 min 0 W/m 8,4 km/h (2 Bft)
15.12.2014 20:58 3,9 C 2,8 C 95 % 1014,0 hPa 0,0 l/m 0 min 0 min 0 W/m 10,5 km/h (2 Bft)
15.12.2014 21:00 4,0 C 2,8 C 95 % 1014,0 hPa 0,0 l/m 0 min 0 min 0 W/m 10,5 km/h (2 Bft)
15.12.2014 21:02 4,0 C 2,8 C 95 % 1014,0 hPa 0,0 l/m 0 min 0 min 0 W/m 12,6 km/h (3 Bft)
15.12.2014 21:04 4,0 C 2,8 C 95 % 1014,0 hPa 0,0 l/m 0 min 0 min 0 W/m 12,6 km/h (3 Bft)
15.12.2014 21:06 4,0 C 2,8 C 95 % 1014,0 hPa 0,0 l/m 0 min 0 min 0 W/m 6,3 km/h (2 Bft)
15.12.2014 21:08 4,0 C 2,8 C 95 % 1013,9 hPa 0,0 l/m 0 min 0 min 0 W/m 12,6 km/h (3 Bft)
15.12.2014 21:10 4,0 C 2,8 C 95 % 1013,9 hPa 0,0 l/m 0 min 0 min 0 W/m 10,5 km/h (2 Bft)
15.12.2014 21:12 4,1 C 2,8 C 95 % 1014,0 hPa 0,0 l/m 0 min 0 min 0 W/m 8,4 km/h (2 Bft)
15.12.2014 21:14 4,0 C 2,8 C 95 % 1013,9 hPa 0,0 l/m 0 min 0 min 0 W/m 14,6 km/h (3 Bft)
15.12.2014 21:16 4,1 C 2,8 C 95 % 1014,0 hPa 0,0 l/m 0 min 0 min 0 W/m 8,4 km/h (2 Bft)
15.12.2014 21:18 4,0 C 2,8 C 95 % 1014,0 hPa 0,0 l/m 0 min 0 min 0 W/m 6,3 km/h (2 Bft)
15.12.2014 21:20 4,1 C 2,8 C 95 % 1013,9 hPa 0,0 l/m 0 min 0 min 0 W/m 8,4 km/h (2 Bft)
15.12.2014 21:22 4,1 C 2,8 C 95 % 1013,9 hPa 0,0 l/m 0 min 0 min 0 W/m 8,4 km/h (2 Bft)
15.12.2014 21:24 4,1 C 2,8 C 95 % 1014,0 hPa 0,0 l/m 0 min 0 min 0 W/m 12,6 km/h (3 Bft)
15.12.2014 21:26 4,1 C 2,8 C 95 % 1014,0 hPa 0,0 l/m 0 min 0 min 0 W/m 14,6 km/h (3 Bft)
15.12.2014 21:28 4,1 C 2,8 C 95 % 1014,0 hPa 0,0 l/m 0 min 0 min 0 W/m 10,5 km/h (2 Bft)
15.12.2014 21:30 4,1 C 2,8 C 95 % 1014,0 hPa 0,0 l/m 0 min 0 min 0 W/m 12,6 km/h (3 Bft)
15.12.2014 21:32 4,1 C 2,8 C 95 % 1014,0 hPa 0,0 l/m 0 min 0 min 0 W/m 14,6 km/h (3 Bft)
15.12.2014 21:34 4,1 C 2,8 C 95 % 1014,0 hPa 0,0 l/m 0 min 0 min 0 W/m 12,6 km/h (3 Bft)
15.12.2014 21:36 4,1 C 2,8 C 95 % 1013,9 hPa 0,0 l/m 0 min 0 min 0 W/m 10,5 km/h (2 Bft)
15.12.2014 21:38 4,1 C 2,8 C 95 % 1013,9 hPa 0,0 l/m 0 min 0 min 0 W/m 10,5 km/h (2 Bft)
15.12.2014 21:40 4,1 C 2,8 C 95 % 1014,0 hPa 0,0 l/m 0 min 0 min 0 W/m 12,6 km/h (3 Bft)
15.12.2014 21:42 4,1 C 2,8 C 96 % 1014,0 hPa 0,0 l/m 0 min 0 min 0 W/m 10,5 km/h (2 Bft)
15.12.2014 21:44 4,1 C 2,8 C 96 % 1014,0 hPa 0,0 l/m 0 min 0 min 0 W/m 16,7 km/h (3 Bft)
15.12.2014 21:46 4,1 C 2,8 C 96 % 1014,0 hPa 0,0 l/m 0 min 0 min 0 W/m 12,6 km/h (3 Bft)
15.12.2014 21:48 4,2 C 2,8 C 96 % 1014,0 hPa 0,0 l/m 0 min 0 min 0 W/m 12,6 km/h (3 Bft)
15.12.2014 21:50 4,2 C 2,8 C 96 % 1014,0 hPa 0,0 l/m 0 min 0 min 0 W/m 12,6 km/h (3 Bft)
15.12.2014 21:52 4,2 C 2,8 C 96 % 1014,0 hPa 0,0 l/m 0 min 0 min 0 W/m 8,4 km/h (2 Bft)
15.12.2014 21:54 4,2 C 2,8 C 96 % 1013,9 hPa 0,0 l/m 0 min 0 min 0 W/m 12,6 km/h (3 Bft)
15.12.2014 21:56 4,2 C 2,8 C 96 % 1013,9 hPa 0,0 l/m 0 min 0 min 0 W/m 8,4 km/h (2 Bft)
15.12.2014 21:58 4,2 C 3,3 C 96 % 1013,9 hPa 0,0 l/m 0 min 0 min 0 W/m 14,6 km/h (3 Bft)
15.12.2014 22:00 4,2 C 3,3 C 96 % 1013,9 hPa 0,0 l/m 0 min 0 min 0 W/m 14,6 km/h (3 Bft)
15.12.2014 22:02 4,2 C 3,3 C 96 % 1013,9 hPa 0,0 l/m 0 min 0 min 0 W/m 8,4 km/h (2 Bft)
15.12.2014 22:04 4,2 C 3,3 C 96 % 1013,9 hPa 0,0 l/m 0 min 0 min 0 W/m 8,4 km/h (2 Bft)
15.12.2014 22:06 4,2 C 3,3 C 96 % 1013,9 hPa 0,0 l/m 0 min 0 min 0 W/m 12,6 km/h (3 Bft)
15.12.2014 22:08 4,2 C 3,3 C 96 % 1013,8 hPa 0,0 l/m 0 min 0 min 0 W/m 10,5 km/h (2 Bft)
15.12.2014 22:10 4,2 C 3,3 C 96 % 1013,8 hPa 0,0 l/m 0 min 0 min 0 W/m 10,5 km/h (2 Bft)
15.12.2014 22:12 4,2 C 3,3 C 96 % 1013,8 hPa 0,0 l/m 0 min 0 min 0 W/m 10,5 km/h (2 Bft)
15.12.2014 22:14 4,3 C 3,3 C 96 % 1013,8 hPa 0,0 l/m 0 min 0 min 0 W/m 8,4 km/h (2 Bft)
15.12.2014 22:16 4,2 C 3,3 C 96 % 1013,9 hPa 0,0 l/m 0 min 0 min 0 W/m 8,4 km/h (2 Bft)
15.12.2014 22:18 4,3 C 3,3 C 96 % 1013,8 hPa 0,0 l/m 0 min 0 min 0 W/m 14,6 km/h (3 Bft)
15.12.2014 22:20 4,3 C 3,3 C 96 % 1013,9 hPa 0,0 l/m 0 min 0 min 0 W/m 6,3 km/h (2 Bft)
15.12.2014 22:22 4,3 C 3,3 C 96 % 1013,9 hPa 0,0 l/m 0 min 0 min 0 W/m 10,5 km/h (2 Bft)
15.12.2014 22:24 4,3 C 3,3 C 96 % 1013,8 hPa 0,0 l/m 0 min 0 min 0 W/m 6,3 km/h (2 Bft)
15.12.2014 22:26 4,3 C 3,3 C 96 % 1013,8 hPa 0,0 l/m 0 min 0 min 0 W/m 4,2 km/h (1 Bft)
15.12.2014 22:28 4,3 C 3,3 C 96 % 1013,8 hPa 0,0 l/m 0 min 0 min 0 W/m 8,4 km/h (2 Bft)
15.12.2014 22:30 4,3 C 3,3 C 96 % 1013,7 hPa 0,0 l/m 0 min 0 min 0 W/m 8,4 km/h (2 Bft)
15.12.2014 22:32 4,3 C 3,3 C 96 % 1013,7 hPa 0,0 l/m 0 min 0 min 0 W/m 6,3 km/h (2 Bft)
15.12.2014 22:34 4,3 C 3,3 C 96 % 1013,7 hPa 0,0 l/m 0 min 0 min 0 W/m 8,4 km/h (2 Bft)
15.12.2014 22:36 4,3 C 3,3 C 96 % 1013,6 hPa 0,0 l/m 0 min 0 min 0 W/m 6,3 km/h (2 Bft)
15.12.2014 22:38 4,3 C 3,3 C 96 % 1013,6 hPa 0,0 l/m 0 min 0 min 0 W/m 6,3 km/h (2 Bft)
15.12.2014 22:40 4,4 C 3,3 C 96 % 1013,7 hPa 0,0 l/m 0 min 0 min 0 W/m 8,4 km/h (2 Bft)
15.12.2014 22:42 4,4 C 3,3 C 96 % 1013,7 hPa 0,0 l/m 0 min 0 min 0 W/m 6,3 km/h (2 Bft)
15.12.2014 22:44 4,4 C 3,3 C 96 % 1013,7 hPa 0,0 l/m 0 min 0 min 0 W/m 6,3 km/h (2 Bft)
15.12.2014 22:46 4,4 C 3,3 C 96 % 1013,7 hPa 0,0 l/m 0 min 0 min 0 W/m 6,3 km/h (2 Bft)
15.12.2014 22:48 4,4 C 3,3 C 96 % 1013,7 hPa 0,0 l/m 0 min 0 min 0 W/m 8,4 km/h (2 Bft)
15.12.2014 22:50 4,4 C 3,3 C 96 % 1013,7 hPa 0,0 l/m 0 min 0 min 0 W/m 6,3 km/h (2 Bft)
15.12.2014 22:52 4,4 C 3,3 C 96 % 1013,7 hPa 0,0 l/m 0 min 0 min 0 W/m 4,2 km/h (1 Bft)
15.12.2014 22:54 4,4 C 3,3 C 96 % 1013,6 hPa 0,0 l/m 0 min 0 min 0 W/m 6,3 km/h (2 Bft)
15.12.2014 22:56 4,4 C 3,3 C 96 % 1013,6 hPa 0,0 l/m 0 min 0 min 0 W/m 8,4 km/h (2 Bft)
15.12.2014 22:58 4,4 C 3,3 C 96 % 1013,6 hPa 0,0 l/m 0 min 0 min 0 W/m 8,4 km/h (2 Bft)
15.12.2014 23:00 4,4 C 3,3 C 96 % 1013,6 hPa 0,0 l/m 0 min 0 min 0 W/m 10,5 km/h (2 Bft)
15.12.2014 23:02 4,4 C 3,3 C 95 % 1013,6 hPa 0,0 l/m 0 min 0 min 0 W/m 8,4 km/h (2 Bft)
15.12.2014 23:04 4,4 C 2,8 C 95 % 1013,6 hPa 0,0 l/m 0 min 0 min 0 W/m 6,3 km/h (2 Bft)
15.12.2014 23:06 4,4 C 2,8 C 95 % 1013,5 hPa 0,0 l/m 0 min 0 min 0 W/m 8,4 km/h (2 Bft)
15.12.2014 23:08 4,4 C 2,8 C 95 % 1013,5 hPa 0,0 l/m 0 min 0 min 0 W/m 8,4 km/h (2 Bft)
15.12.2014 23:10 4,3 C 2,8 C 95 % 1013,5 hPa 0,0 l/m 0 min 0 min 0 W/m 8,4 km/h (2 Bft)
15.12.2014 23:12 4,3 C 2,8 C 95 % 1013,5 hPa 0,0 l/m 0 min 0 min 0 W/m 6,3 km/h (2 Bft)
15.12.2014 23:14 4,3 C 2,8 C 95 % 1013,5 hPa 0,0 l/m 0 min 0 min 0 W/m 8,4 km/h (2 Bft)
15.12.2014 23:16 4,3 C 2,8 C 95 % 1013,5 hPa 0,0 l/m 0 min 0 min 0 W/m 4,2 km/h (1 Bft)
15.12.2014 23:18 4,3 C 2,8 C 95 % 1013,5 hPa 0,0 l/m 0 min 0 min 0 W/m 8,4 km/h (2 Bft)
15.12.2014 23:20 4,3 C 2,8 C 95 % 1013,5 hPa 0,0 l/m 0 min 0 min 0 W/m 6,3 km/h (2 Bft)
15.12.2014 23:22 4,3 C 2,8 C 95 % 1013,5 hPa 0,0 l/m 0 min 0 min 0 W/m 6,3 km/h (2 Bft)
15.12.2014 23:24 4,3 C 2,8 C 95 % 1013,5 hPa 0,0 l/m 0 min 0 min 0 W/m 6,3 km/h (2 Bft)
15.12.2014 23:26 4,3 C 2,8 C 95 % 1013,5 hPa 0,0 l/m 0 min 0 min 0 W/m 6,3 km/h (2 Bft)
15.12.2014 23:28 4,2 C 2,8 C 95 % 1013,4 hPa 0,0 l/m 0 min 0 min 0 W/m 6,3 km/h (2 Bft)
15.12.2014 23:30 4,2 C 2,8 C 95 % 1013,4 hPa 0,0 l/m 0 min 0 min 0 W/m 4,2 km/h (1 Bft)
15.12.2014 23:32 4,2 C 2,8 C 95 % 1013,4 hPa 0,0 l/m 0 min 0 min 0 W/m 4,2 km/h (1 Bft)
15.12.2014 23:34 4,2 C 2,8 C 95 % 1013,3 hPa 0,0 l/m 0 min 0 min 0 W/m 6,3 km/h (2 Bft)
15.12.2014 23:36 4,2 C 2,8 C 95 % 1013,3 hPa 0,0 l/m 0 min 0 min 0 W/m 6,3 km/h (2 Bft)
15.12.2014 23:38 4,2 C 2,8 C 95 % 1013,3 hPa 0,0 l/m 0 min 0 min 0 W/m 6,3 km/h (2 Bft)
15.12.2014 23:40 4,2 C 2,8 C 95 % 1013,3 hPa 0,0 l/m 0 min 0 min 0 W/m 4,2 km/h (1 Bft)
15.12.2014 23:42 4,2 C 2,8 C 95 % 1013,4 hPa 0,0 l/m 0 min 0 min 0 W/m 4,2 km/h (1 Bft)
15.12.2014 23:44 4,2 C 2,8 C 95 % 1013,4 hPa 0,0 l/m 0 min 0 min 0 W/m 6,3 km/h (2 Bft)
15.12.2014 23:46 4,2 C 2,8 C 95 % 1013,4 hPa 0,0 l/m 0 min 0 min 0 W/m 6,3 km/h (2 Bft)
15.12.2014 23:48 4,2 C 2,8 C 95 % 1013,3 hPa 0,0 l/m 0 min 0 min 0 W/m 6,3 km/h (2 Bft)
15.12.2014 23:50 4,2 C 2,8 C 95 % 1013,3 hPa 0,0 l/m 0 min 0 min 0 W/m 6,3 km/h (2 Bft)
15.12.2014 23:52 4,1 C 2,8 C 95 % 1013,3 hPa 0,0 l/m 0 min 0 min 0 W/m 6,3 km/h (2 Bft)
15.12.2014 23:54 4,1 C 2,8 C 95 % 1013,3 hPa 0,0 l/m 0 min 0 min 0 W/m 6,3 km/h (2 Bft)
15.12.2014 23:56 4,1 C 2,8 C 95 % 1013,2 hPa 0,0 l/m 0 min 0 min 0 W/m 8,4 km/h (2 Bft)
15.12.2014 23:58 4,1 C 2,8 C 95 % 1013,2 hPa 0,0 l/m 0 min 0 min 0 W/m 6,3 km/h (2 Bft)
_ Min-Zeit 00:00 00:00 06:28 07:02 - - - - 22:26
Minimum _ -0,3 C -1,1 C 82 % 1010,7 hPa - - - - 4,2 km/h (1 Bft)
_ Max-Zeit 08:14 12:54 21:42 00:00 06:14 00:00 08:12 12:48 08:10
Maximum _ 5,3 C 4,4 C 96 % 1014,7 hPa 0,2 l/m 0 min 2 min 109 W/m 52,3 km/h
W-SW (7 Bft)
Durchschnitt _ 3,7 C 2,4 C 93 % 1013,0 hPa #0,8 l/m #0 min. #2:30 h 26 W/m 17,9 km/h (3 Bft)
© 2015 W. Hausmann